Wetterdaten: Freitag, 07.01.2022
Datum Zeit Temp. Aussen Temp. o. S. Temp +5cm Feuchte Auss Luftdruck Regen Sonnenschein Regendauer Solar Windben Empfang
07.01.2022 00:00 2,1 C 1,7 C 0,6 C 90 % 1017,7 hPa 0,0 l/m 0 min 0 min 0 W/m 12,9 km/h (3 Bft) 97,87 %
07.01.2022 00:02 2,1 C 1,7 C 0,6 C 90 % 1017,6 hPa 0,0 l/m 0 min 0 min 0 W/m 16,1 km/h (3 Bft) 94,59 %
07.01.2022 00:04 2,1 C 1,7 C 0,6 C 90 % 1017,6 hPa 0,0 l/m 0 min 0 min 0 W/m 12,9 km/h (3 Bft) 100,00 %
07.01.2022 00:08 2,1 C 1,7 C 0,6 C 90 % 1017,5 hPa 0,0 l/m 0 min 0 min 0 W/m 16,1 km/h (3 Bft) 100,00 %
07.01.2022 00:10 2,1 C 1,7 C 0,6 C 90 % 1017,5 hPa 0,0 l/m 0 min 0 min 0 W/m 12,9 km/h (3 Bft) 97,87 %
07.01.2022 00:12 2,1 C 1,7 C 0,6 C 90 % 1017,5 hPa 0,0 l/m 0 min 0 min 0 W/m 16,1 km/h (3 Bft) 95,74 %
07.01.2022 00:14 2,1 C 1,7 C 0,6 C 90 % 1017,4 hPa 0,0 l/m 0 min 0 min 0 W/m 12,9 km/h (3 Bft) 100,00 %
07.01.2022 00:16 2,1 C 1,7 C 0,6 C 90 % 1017,4 hPa 0,0 l/m 0 min 0 min 0 W/m 12,9 km/h (3 Bft) 100,00 %
07.01.2022 00:18 2,2 C 1,7 C 0,6 C 90 % 1017,4 hPa 0,0 l/m 0 min 0 min 0 W/m 12,9 km/h (3 Bft) 97,83 %
07.01.2022 00:20 2,2 C 1,7 C 0,6 C 90 % 1017,4 hPa 0,0 l/m 0 min 0 min 0 W/m 16,1 km/h (3 Bft) 95,74 %
07.01.2022 00:22 2,2 C 1,7 C 0,6 C 90 % 1017,3 hPa 0,0 l/m 0 min 0 min 0 W/m 16,1 km/h (3 Bft) 100,00 %
07.01.2022 00:24 2,2 C 1,7 C 0,6 C 90 % 1017,3 hPa 0,0 l/m 0 min 0 min 0 W/m 16,1 km/h (3 Bft) 82,98 %
07.01.2022 00:26 2,1 C 1,7 C 0,6 C 90 % 1017,3 hPa 0,0 l/m 0 min 0 min 0 W/m 12,9 km/h (3 Bft) 73,33 %
07.01.2022 00:28 2,1 C 1,7 C 0,6 C 89 % 1017,3 hPa 0,0 l/m 0 min 0 min 0 W/m 12,9 km/h (3 Bft) 100,00 %
07.01.2022 00:30 2,1 C 1,7 C 0,6 C 89 % 1017,2 hPa 0,0 l/m 0 min 0 min 0 W/m 12,9 km/h (3 Bft) 100,00 %
07.01.2022 00:32 2,2 C 1,7 C 0,6 C 89 % 1017,2 hPa 0,0 l/m 0 min 0 min 0 W/m 12,9 km/h (3 Bft) 100,00 %
07.01.2022 00:34 2,2 C 1,7 C 0,6 C 89 % 1017,2 hPa 0,0 l/m 0 min 0 min 0 W/m 16,1 km/h (3 Bft) 100,00 %
07.01.2022 00:36 2,2 C 1,7 C 0,6 C 89 % 1017,1 hPa 0,0 l/m 0 min 0 min 0 W/m 16,1 km/h (3 Bft) 100,00 %
07.01.2022 00:38 2,2 C 1,7 C 0,6 C 89 % 1017,1 hPa 0,0 l/m 0 min 0 min 0 W/m 12,9 km/h (3 Bft) 100,00 %
07.01.2022 00:40 2,2 C 1,7 C 0,6 C 89 % 1017,1 hPa 0,0 l/m 0 min 0 min 0 W/m 9,7 km/h (2 Bft) 100,00 %
07.01.2022 00:42 2,2 C 1,7 C 0,6 C 89 % 1017,0 hPa 0,0 l/m 0 min 0 min 0 W/m 12,9 km/h (3 Bft) 97,83 %
07.01.2022 00:44 2,2 C 1,7 C 0,6 C 89 % 1016,9 hPa 0,0 l/m 0 min 0 min 0 W/m 16,1 km/h (3 Bft) 100,00 %
07.01.2022 00:46 2,2 C 1,7 C 0,6 C 89 % 1016,9 hPa 0,0 l/m 0 min 0 min 0 W/m 12,9 km/h (3 Bft) 100,00 %
07.01.2022 00:48 2,2 C 1,7 C 0,6 C 89 % 1016,9 hPa 0,0 l/m 0 min 0 min 0 W/m 12,9 km/h (3 Bft) 100,00 %
07.01.2022 00:50 2,2 C 1,7 C 0,6 C 89 % 1016,9 hPa 0,0 l/m 0 min 0 min 0 W/m 22,5 km/h (4 Bft) 97,87 %
07.01.2022 00:52 2,2 C 1,7 C 0,6 C 89 % 1016,8 hPa 0,0 l/m 0 min 0 min 0 W/m 19,3 km/h (3 Bft) 97,83 %
07.01.2022 00:54 2,2 C 1,7 C 0,6 C 89 % 1016,9 hPa 0,0 l/m 0 min 0 min 0 W/m 12,9 km/h (3 Bft) 100,00 %
07.01.2022 00:56 2,2 C 1,7 C 0,6 C 89 % 1016,8 hPa 0,0 l/m 0 min 0 min 0 W/m 19,3 km/h (3 Bft) 97,87 %
07.01.2022 00:58 2,2 C 1,7 C 0,6 C 89 % 1016,8 hPa 0,0 l/m 0 min 0 min 0 W/m 12,9 km/h (3 Bft) 95,74 %
07.01.2022 01:00 2,2 C 1,7 C 0,6 C 89 % 1016,8 hPa 0,0 l/m 0 min 0 min 0 W/m 16,1 km/h (3 Bft) 93,62 %
07.01.2022 01:02 2,2 C 1,7 C 0,6 C 89 % 1016,8 hPa 0,0 l/m 0 min 0 min 0 W/m 6,4 km/h (2 Bft) 93,62 %
07.01.2022 01:04 2,2 C 1,7 C 0,6 C 89 % 1016,7 hPa 0,0 l/m 0 min 0 min 0 W/m 12,9 km/h (3 Bft) 95,65 %
07.01.2022 01:06 2,2 C 1,7 C 0,6 C 89 % 1016,7 hPa 0,0 l/m 0 min 0 min 0 W/m 12,9 km/h (3 Bft) 95,74 %
07.01.2022 01:08 2,3 C 1,7 C 0,6 C 89 % 1016,7 hPa 0,0 l/m 0 min 0 min 0 W/m 16,1 km/h (3 Bft) 95,74 %
07.01.2022 01:10 2,3 C 1,7 C 0,6 C 89 % 1016,7 hPa 0,0 l/m 0 min 0 min 0 W/m 16,1 km/h (3 Bft) 95,74 %
07.01.2022 01:12 2,2 C 1,7 C 0,6 C 89 % 1016,6 hPa 0,0 l/m 0 min 0 min 0 W/m 12,9 km/h (3 Bft) 95,74 %
07.01.2022 01:14 2,3 C 1,7 C 0,6 C 89 % 1016,6 hPa 0,0 l/m 0 min 0 min 0 W/m 12,9 km/h (3 Bft) 95,74 %
07.01.2022 01:16 2,3 C 1,7 C 0,6 C 89 % 1016,6 hPa 0,0 l/m 0 min 0 min 0 W/m 12,9 km/h (3 Bft) 63,83 %
07.01.2022 01:18 2,3 C 1,7 C 0,6 C 89 % 1016,5 hPa 0,0 l/m 0 min 0 min 0 W/m 19,3 km/h (3 Bft) 87,50 %
07.01.2022 01:20 2,3 C 1,7 C 0,6 C 89 % 1016,6 hPa 0,0 l/m 0 min 0 min 0 W/m 16,1 km/h (3 Bft) 97,87 %
07.01.2022 01:22 2,3 C 1,7 C 0,6 C 89 % 1016,5 hPa 0,0 l/m 0 min 0 min 0 W/m 12,9 km/h (3 Bft) 91,49 %
07.01.2022 01:24 2,3 C 1,7 C 0,6 C 89 % 1016,5 hPa 0,0 l/m 0 min 0 min 0 W/m 16,1 km/h (3 Bft) 95,74 %
07.01.2022 01:26 2,3 C 1,7 C 0,6 C 89 % 1016,4 hPa 0,0 l/m 0 min 0 min 0 W/m 12,9 km/h (3 Bft) 95,74 %
07.01.2022 01:28 2,3 C 1,7 C 0,6 C 89 % 1016,4 hPa 0,0 l/m 0 min 0 min 0 W/m 16,1 km/h (3 Bft) 95,65 %
07.01.2022 01:30 2,3 C 1,7 C 0,6 C 89 % 1016,3 hPa 0,0 l/m 0 min 0 min 0 W/m 16,1 km/h (3 Bft) 97,87 %
07.01.2022 01:32 2,3 C 1,7 C 0,6 C 89 % 1016,3 hPa 0,0 l/m 0 min 0 min 0 W/m 19,3 km/h (3 Bft) 97,87 %
07.01.2022 01:34 2,3 C 1,7 C 0,6 C 89 % 1016,3 hPa 0,0 l/m 0 min 0 min 0 W/m 12,9 km/h (3 Bft) 97,87 %
07.01.2022 01:36 2,3 C 1,7 C 0,6 C 89 % 1016,3 hPa 0,0 l/m 0 min 0 min 0 W/m 19,3 km/h (3 Bft) 100,00 %
07.01.2022 01:38 2,4 C 1,7 C 0,6 C 89 % 1016,2 hPa 0,0 l/m 0 min 0 min 0 W/m 16,1 km/h (3 Bft) 100,00 %
07.01.2022 01:40 2,3 C 1,7 C 0,6 C 89 % 1016,2 hPa 0,0 l/m 0 min 0 min 0 W/m 16,1 km/h (3 Bft) 100,00 %
07.01.2022 01:42 2,4 C 1,7 C 0,6 C 89 % 1016,2 hPa 0,0 l/m 0 min 0 min 0 W/m 12,9 km/h (3 Bft) 97,87 %
07.01.2022 01:44 2,4 C 1,7 C 0,6 C 89 % 1016,2 hPa 0,0 l/m 0 min 0 min 0 W/m 19,3 km/h (3 Bft) 100,00 %
07.01.2022 01:46 2,4 C 2,2 C 0,6 C 89 % 1016,1 hPa 0,0 l/m 0 min 0 min 0 W/m 9,7 km/h (2 Bft) 100,00 %
07.01.2022 01:48 2,4 C 2,2 C 0,6 C 89 % 1016,1 hPa 0,0 l/m 0 min 0 min 0 W/m 16,1 km/h (3 Bft) 100,00 %
07.01.2022 01:50 2,4 C 2,2 C 0,6 C 89 % 1016,1 hPa 0,0 l/m 0 min 0 min 0 W/m 16,1 km/h (3 Bft) 100,00 %
07.01.2022 01:52 2,4 C 2,2 C 0,6 C 89 % 1016,1 hPa 0,0 l/m 0 min 0 min 0 W/m 16,1 km/h (3 Bft) 100,00 %
07.01.2022 01:54 2,4 C 2,2 C 0,6 C 89 % 1016,0 hPa 0,0 l/m 0 min 0 min 0 W/m 12,9 km/h (3 Bft) 100,00 %
07.01.2022 01:56 2,4 C 2,2 C 0,6 C 89 % 1015,9 hPa 0,0 l/m 0 min 0 min 0 W/m 12,9 km/h (3 Bft) 97,87 %
07.01.2022 01:58 2,4 C 2,2 C 0,6 C 89 % 1016,0 hPa 0,0 l/m 0 min 0 min 0 W/m 16,1 km/h (3 Bft) 100,00 %
07.01.2022 02:00 2,5 C 2,2 C 0,6 C 89 % 1015,9 hPa 0,0 l/m 0 min 0 min 0 W/m 12,9 km/h (3 Bft) 100,00 %
07.01.2022 02:02 2,5 C 2,2 C 0,6 C 89 % 1015,8 hPa 0,0 l/m 0 min 0 min 0 W/m 12,9 km/h (3 Bft) 95,74 %
07.01.2022 02:04 2,5 C 2,2 C 0,6 C 89 % 1015,9 hPa 0,0 l/m 0 min 0 min 0 W/m 19,3 km/h (3 Bft) 95,65 %
07.01.2022 02:06 2,6 C 2,2 C 0,6 C 88 % 1015,8 hPa 0,0 l/m 0 min 0 min 0 W/m 12,9 km/h (3 Bft) 100,00 %
07.01.2022 02:08 2,6 C 2,2 C 0,6 C 88 % 1015,9 hPa 0,0 l/m 0 min 0 min 0 W/m 12,9 km/h (3 Bft) 97,87 %
07.01.2022 02:10 2,6 C 2,2 C 0,6 C 88 % 1015,8 hPa 0,0 l/m 0 min 0 min 0 W/m 22,5 km/h (4 Bft) 51,16 %
07.01.2022 02:12 2,6 C 2,2 C 0,6 C 88 % 1015,9 hPa 0,0 l/m 0 min 0 min 0 W/m 12,9 km/h (3 Bft) 95,74 %
07.01.2022 02:14 2,6 C 2,2 C 0,6 C 88 % 1015,8 hPa 0,0 l/m 0 min 0 min 0 W/m 12,9 km/h (3 Bft) 97,87 %
07.01.2022 02:16 2,6 C 2,2 C 0,6 C 88 % 1015,8 hPa 0,0 l/m 0 min 0 min 0 W/m 19,3 km/h (3 Bft) 97,83 %
07.01.2022 02:18 2,6 C 2,2 C 0,6 C 88 % 1015,8 hPa 0,0 l/m 0 min 0 min 0 W/m 19,3 km/h (3 Bft) 97,87 %
07.01.2022 02:20 2,6 C 2,2 C 0,6 C 88 % 1015,7 hPa 0,0 l/m 0 min 0 min 0 W/m 19,3 km/h (3 Bft) 95,74 %
07.01.2022 02:22 2,6 C 2,2 C 0,6 C 88 % 1015,6 hPa 0,0 l/m 0 min 0 min 0 W/m 22,5 km/h (4 Bft) 97,87 %
07.01.2022 02:24 2,6 C 2,2 C 0,6 C 88 % 1015,6 hPa 0,0 l/m 0 min 0 min 0 W/m 12,9 km/h (3 Bft) 97,87 %
07.01.2022 02:26 2,7 C 2,2 C 0,6 C 88 % 1015,6 hPa 0,0 l/m 0 min 0 min 0 W/m 22,5 km/h (4 Bft) 93,62 %
07.01.2022 02:28 2,7 C 2,2 C 0,6 C 88 % 1015,6 hPa 0,0 l/m 0 min 0 min 0 W/m 22,5 km/h (4 Bft) 93,48 %
07.01.2022 02:30 2,7 C 2,2 C 0,6 C 88 % 1015,6 hPa 0,0 l/m 0 min 0 min 0 W/m 12,9 km/h (3 Bft) 97,87 %
07.01.2022 02:32 2,7 C 2,2 C 0,6 C 88 % 1015,5 hPa 0,0 l/m 0 min 0 min 0 W/m 22,5 km/h (4 Bft) 97,87 %
07.01.2022 02:34 2,7 C 2,2 C 0,6 C 88 % 1015,5 hPa 0,0 l/m 0 min 0 min 0 W/m 19,3 km/h (3 Bft) 97,87 %
07.01.2022 02:36 2,7 C 2,2 C 0,6 C 87 % 1015,5 hPa 0,0 l/m 0 min 0 min 0 W/m 16,1 km/h (3 Bft) 97,87 %
07.01.2022 02:38 2,7 C 2,2 C 0,6 C 88 % 1015,5 hPa 0,0 l/m 0 min 0 min 0 W/m 16,1 km/h (3 Bft) 97,83 %
07.01.2022 02:40 2,8 C 2,2 C 0,6 C 87 % 1015,5 hPa 0,0 l/m 0 min 0 min 0 W/m 16,1 km/h (3 Bft) 95,74 %
07.01.2022 02:42 2,8 C 2,2 C 0,6 C 87 % 1015,5 hPa 0,0 l/m 0 min 0 min 0 W/m 12,9 km/h (3 Bft) 97,87 %
07.01.2022 02:44 2,8 C 2,2 C 0,6 C 87 % 1015,5 hPa 0,0 l/m 0 min 0 min 0 W/m 19,3 km/h (3 Bft) 97,87 %
07.01.2022 02:46 2,8 C 2,2 C 0,6 C 87 % 1015,5 hPa 0,0 l/m 0 min 0 min 0 W/m 22,5 km/h (4 Bft) 93,62 %
07.01.2022 02:48 2,8 C 2,2 C 0,6 C 87 % 1015,5 hPa 0,0 l/m 0 min 0 min 0 W/m 16,1 km/h (3 Bft) 97,87 %
07.01.2022 02:50 2,8 C 2,2 C 0,6 C 87 % 1015,5 hPa 0,0 l/m 0 min 0 min 0 W/m 16,1 km/h (3 Bft) 97,87 %
07.01.2022 02:52 2,8 C 2,2 C 0,6 C 87 % 1015,5 hPa 0,0 l/m 0 min 0 min 0 W/m 16,1 km/h (3 Bft) 97,83 %
07.01.2022 02:54 2,9 C 2,2 C 0,6 C 87 % 1015,5 hPa 0,0 l/m 0 min 0 min 0 W/m 12,9 km/h (3 Bft) 95,74 %
07.01.2022 02:56 2,9 C 2,2 C 0,6 C 87 % 1015,4 hPa 0,0 l/m 0 min 0 min 0 W/m 12,9 km/h (3 Bft) 95,74 %
07.01.2022 02:58 2,9 C 2,2 C 0,6 C 87 % 1015,4 hPa 0,0 l/m 0 min 0 min 0 W/m 29,0 km/h (5 Bft) 95,74 %
07.01.2022 03:00 2,9 C 2,8 C 0,6 C 87 % 1015,4 hPa 0,0 l/m 0 min 0 min 0 W/m 29,0 km/h (5 Bft) 93,62 %
07.01.2022 03:02 3,0 C 2,2 C 0,6 C 87 % 1015,5 hPa 0,0 l/m 0 min 0 min 0 W/m 25,7 km/h (4 Bft) 93,48 %
07.01.2022 03:04 3,0 C 2,2 C 0,6 C 87 % 1015,3 hPa 0,0 l/m 0 min 2 min 0 W/m 16,1 km/h (3 Bft) 70,21 %
07.01.2022 03:06 3,0 C 2,2 C 0,6 C 87 % 1015,4 hPa 0,0 l/m 0 min 2 min 0 W/m 25,7 km/h (4 Bft) 80,00 %
07.01.2022 03:08 3,0 C 2,2 C 0,0 C 87 % 1015,3 hPa 0,0 l/m 0 min 2 min 0 W/m 25,7 km/h (4 Bft) 95,74 %
07.01.2022 03:10 3,1 C 2,2 C 0,0 C 87 % 1015,3 hPa 0,0 l/m 0 min 0 min 0 W/m 25,7 km/h (4 Bft) 93,62 %
07.01.2022 03:12 3,1 C 2,8 C 0,6 C 87 % 1015,2 hPa 0,0 l/m 0 min 2 min 0 W/m 35,4 km/h (5 Bft) 97,87 %
07.01.2022 03:14 3,1 C 2,8 C 0,0 C 87 % 1015,2 hPa 0,0 l/m 0 min 2 min 0 W/m 35,4 km/h (5 Bft) 97,83 %
07.01.2022 03:16 3,1 C 2,8 C 0,0 C 87 % 1015,2 hPa 0,0 l/m 0 min 2 min 0 W/m 35,4 km/h (5 Bft) 97,87 %
07.01.2022 03:18 3,1 C 2,8 C 0,0 C 87 % 1015,1 hPa 0,0 l/m 0 min 2 min 0 W/m 32,2 km/h (5 Bft) 95,74 %
07.01.2022 03:20 3,1 C 2,8 C 0,0 C 87 % 1015,1 hPa 0,0 l/m 0 min 2 min 0 W/m 38,6 km/h (5 Bft) 95,74 %
07.01.2022 03:22 3,1 C 2,8 C 0,0 C 87 % 1015,2 hPa 0,0 l/m 0 min 2 min 0 W/m 38,6 km/h (5 Bft) 95,74 %
07.01.2022 03:24 3,1 C 2,2 C 0,0 C 87 % 1015,1 hPa 0,0 l/m 0 min 2 min 0 W/m 16,1 km/h (3 Bft) 97,87 %
07.01.2022 03:26 3,1 C 2,2 C 0,0 C 87 % 1015,0 hPa 0,0 l/m 0 min 2 min 0 W/m 22,5 km/h (4 Bft) 95,65 %
07.01.2022 03:28 3,1 C 2,2 C 0,0 C 87 % 1015,0 hPa 0,0 l/m 0 min 2 min 0 W/m 19,3 km/h (3 Bft) 95,74 %
07.01.2022 03:30 3,1 C 2,2 C 0,0 C 87 % 1015,0 hPa 0,0 l/m 0 min 2 min 0 W/m 32,2 km/h (5 Bft) 97,87 %
07.01.2022 03:32 3,0 C 2,2 C 0,0 C 88 % 1014,9 hPa 0,0 l/m 0 min 2 min 0 W/m 22,5 km/h (4 Bft) 95,74 %
07.01.2022 03:34 3,0 C 2,2 C 0,0 C 88 % 1014,9 hPa 0,0 l/m 0 min 2 min 0 W/m 25,7 km/h (4 Bft) 100,00 %
07.01.2022 03:36 3,0 C 2,2 C 0,0 C 88 % 1014,9 hPa 0,0 l/m 0 min 2 min 0 W/m 32,2 km/h (5 Bft) 95,74 %
07.01.2022 03:38 3,0 C 2,2 C 0,0 C 88 % 1014,9 hPa 0,2 l/m 0 min 2 min 0 W/m 22,5 km/h (4 Bft) 97,83 %
07.01.2022 03:40 2,9 C 2,2 C 0,0 C 88 % 1014,9 hPa 0,0 l/m 0 min 2 min 0 W/m 32,2 km/h (5 Bft) 95,74 %
07.01.2022 03:42 2,9 C 2,2 C 0,0 C 88 % 1014,8 hPa 0,0 l/m 0 min 2 min 0 W/m 32,2 km/h (5 Bft) 97,87 %
07.01.2022 03:44 2,9 C 2,2 C 0,0 C 88 % 1014,8 hPa 0,0 l/m 0 min 2 min 0 W/m 29,0 km/h (5 Bft) 95,74 %
07.01.2022 03:46 2,9 C 2,2 C 0,0 C 89 % 1014,6 hPa 0,0 l/m 0 min 2 min 0 W/m 22,5 km/h (4 Bft) 98,11 %
07.01.2022 03:48 2,8 C 2,2 C 0,0 C 89 % 1014,5 hPa 0,0 l/m 0 min 2 min 0 W/m 22,5 km/h (4 Bft) 97,83 %
07.01.2022 03:50 2,8 C 2,2 C 0,0 C 89 % 1014,5 hPa 0,0 l/m 0 min 2 min 0 W/m 48,3 km/h (6 Bft) 97,87 %
07.01.2022 03:52 2,8 C 2,2 C 0,0 C 89 % 1014,5 hPa 0,0 l/m 0 min 2 min 0 W/m 29,0 km/h (5 Bft) 97,87 %
07.01.2022 03:54 2,8 C 2,2 C 0,0 C 89 % 1014,4 hPa 0,0 l/m 0 min 2 min 0 W/m 25,7 km/h (4 Bft) 97,87 %
07.01.2022 03:56 2,7 C 2,2 C 0,0 C 90 % 1014,3 hPa 0,0 l/m 0 min 0 min 0 W/m 12,9 km/h (3 Bft) 95,74 %
07.01.2022 03:58 2,7 C 2,2 C 0,0 C 90 % 1014,3 hPa 0,0 l/m 0 min 2 min 0 W/m 29,0 km/h (5 Bft) 97,87 %
07.01.2022 04:00 2,7 C 2,2 C 0,0 C 90 % 1014,3 hPa 0,0 l/m 0 min 2 min 0 W/m 19,3 km/h (3 Bft) 97,83 %
07.01.2022 04:02 2,7 C 2,2 C 0,0 C 90 % 1014,3 hPa 0,0 l/m 0 min 2 min 0 W/m 19,3 km/h (3 Bft) 100,00 %
07.01.2022 04:04 2,7 C 2,2 C 0,0 C 90 % 1014,2 hPa 0,0 l/m 0 min 2 min 0 W/m 19,3 km/h (3 Bft) 95,74 %
07.01.2022 04:06 2,7 C 2,2 C 0,0 C 90 % 1014,1 hPa 0,0 l/m 0 min 2 min 0 W/m 19,3 km/h (3 Bft) 100,00 %
07.01.2022 04:08 2,7 C 2,2 C 0,0 C 90 % 1014,1 hPa 0,0 l/m 0 min 2 min 0 W/m 22,5 km/h (4 Bft) 100,00 %
07.01.2022 04:10 2,7 C 2,2 C 0,0 C 90 % 1014,1 hPa 0,0 l/m 0 min 0 min 0 W/m 19,3 km/h (3 Bft) 100,00 %
07.01.2022 04:12 2,7 C 2,2 C 0,0 C 90 % 1014,0 hPa 0,0 l/m 0 min 0 min 0 W/m 19,3 km/h (3 Bft) 97,83 %
07.01.2022 04:14 2,7 C 2,2 C 0,0 C 90 % 1014,0 hPa 0,0 l/m 0 min 0 min 0 W/m 12,9 km/h (3 Bft) 100,00 %
07.01.2022 04:16 2,7 C 2,2 C 0,0 C 90 % 1014,0 hPa 0,0 l/m 0 min 0 min 0 W/m 16,1 km/h (3 Bft) 100,00 %
07.01.2022 04:18 2,7 C 2,2 C 0,0 C 90 % 1013,9 hPa 0,0 l/m 0 min 0 min 0 W/m 19,3 km/h (3 Bft) 100,00 %
07.01.2022 04:20 2,7 C 2,2 C 0,0 C 90 % 1013,8 hPa 0,0 l/m 0 min 0 min 0 W/m 22,5 km/h (4 Bft) 100,00 %
07.01.2022 04:22 2,7 C 2,2 C 0,0 C 90 % 1013,8 hPa 0,0 l/m 0 min 0 min 0 W/m 19,3 km/h (3 Bft) 100,00 %
07.01.2022 04:24 2,7 C 2,2 C 0,0 C 90 % 1013,8 hPa 0,0 l/m 0 min 0 min 0 W/m 19,3 km/h (3 Bft) 100,00 %
07.01.2022 04:26 2,7 C 2,2 C 0,0 C 90 % 1013,8 hPa 0,0 l/m 0 min 2 min 0 W/m 19,3 km/h (3 Bft) 97,87 %
07.01.2022 04:28 2,8 C 2,2 C 0,0 C 90 % 1013,7 hPa 0,0 l/m 0 min 0 min 0 W/m 12,9 km/h (3 Bft) 100,00 %
07.01.2022 04:30 2,8 C 2,2 C 0,0 C 90 % 1013,7 hPa 0,0 l/m 0 min 0 min 0 W/m 12,9 km/h (3 Bft) 100,00 %
07.01.2022 04:32 2,8 C 2,2 C 0,0 C 90 % 1013,7 hPa 0,0 l/m 0 min 0 min 0 W/m 16,1 km/h (3 Bft) 97,92 %
07.01.2022 04:34 2,8 C 2,2 C 0,0 C 90 % 1013,7 hPa 0,0 l/m 0 min 0 min 0 W/m 12,9 km/h (3 Bft) 100,00 %
07.01.2022 04:36 2,8 C 2,2 C 0,0 C 90 % 1013,7 hPa 0,0 l/m 0 min 0 min 0 W/m 12,9 km/h (3 Bft) 97,87 %
07.01.2022 04:38 2,8 C 2,2 C 0,0 C 90 % 1013,7 hPa 0,0 l/m 0 min 0 min 0 W/m 16,1 km/h (3 Bft) 97,14 %
07.01.2022 04:40 2,8 C 2,2 C 0,0 C 89 % 1013,6 hPa 0,0 l/m 0 min 0 min 0 W/m 25,7 km/h (4 Bft) 98,31 %
07.01.2022 04:42 2,8 C 2,8 C 0,0 C 89 % 1013,6 hPa 0,0 l/m 0 min 2 min 0 W/m 19,3 km/h (3 Bft) 100,00 %
07.01.2022 04:44 2,9 C 2,8 C 0,0 C 89 % 1013,6 hPa 0,0 l/m 0 min 0 min 0 W/m 16,1 km/h (3 Bft) 100,00 %
07.01.2022 04:46 2,9 C 2,8 C 0,0 C 89 % 1013,6 hPa 0,0 l/m 0 min 0 min 0 W/m 19,3 km/h (3 Bft) 100,00 %
07.01.2022 04:48 2,9 C 2,8 C 0,0 C 89 % 1013,5 hPa 0,0 l/m 0 min 0 min 0 W/m 19,3 km/h (3 Bft) 97,87 %
07.01.2022 04:50 2,9 C 2,8 C 0,0 C 89 % 1013,5 hPa 0,0 l/m 0 min 0 min 0 W/m 19,3 km/h (3 Bft) 94,29 %
07.01.2022 04:52 3,0 C 2,8 C 0,0 C 89 % 1013,5 hPa 0,0 l/m 0 min 0 min 0 W/m 19,3 km/h (3 Bft) 82,76 %
07.01.2022 04:54 3,1 C 2,8 C 0,0 C 88 % 1013,4 hPa 0,0 l/m 0 min 0 min 0 W/m 16,1 km/h (3 Bft) 58,62 %
07.01.2022 04:56 3,1 C 2,8 C 0,0 C 88 % 1013,4 hPa 0,0 l/m 0 min 0 min 0 W/m 12,9 km/h (3 Bft) 97,87 %
07.01.2022 04:58 3,1 C 2,8 C 0,0 C 88 % 1013,3 hPa 0,0 l/m 0 min 0 min 0 W/m 19,3 km/h (3 Bft) 97,83 %
07.01.2022 05:00 3,1 C 2,8 C 0,0 C 87 % 1013,3 hPa 0,0 l/m 0 min 0 min 0 W/m 16,1 km/h (3 Bft) 97,87 %
07.01.2022 05:02 3,1 C 2,8 C 0,0 C 87 % 1013,3 hPa 0,0 l/m 0 min 0 min 0 W/m 9,7 km/h (2 Bft) 97,92 %
07.01.2022 05:04 3,2 C 2,8 C 0,0 C 87 % 1013,2 hPa 0,0 l/m 0 min 0 min 0 W/m 25,7 km/h (4 Bft) 97,87 %
07.01.2022 05:06 3,2 C 2,8 C 0,6 C 87 % 1013,3 hPa 0,0 l/m 0 min 0 min 0 W/m 22,5 km/h (4 Bft) 97,87 %
07.01.2022 05:08 3,2 C 2,8 C 0,6 C 87 % 1013,3 hPa 0,0 l/m 0 min 0 min 0 W/m 19,3 km/h (3 Bft) 95,74 %
07.01.2022 05:10 3,2 C 2,8 C 0,6 C 87 % 1013,2 hPa 0,0 l/m 0 min 0 min 0 W/m 22,5 km/h (4 Bft) 97,83 %
07.01.2022 05:12 3,2 C 2,8 C 0,6 C 87 % 1013,3 hPa 0,0 l/m 0 min 0 min 0 W/m 12,9 km/h (3 Bft) 97,87 %
07.01.2022 05:14 3,3 C 2,8 C 0,6 C 86 % 1013,3 hPa 0,0 l/m 0 min 0 min 0 W/m 16,1 km/h (3 Bft) 97,87 %
07.01.2022 05:16 3,3 C 2,8 C 0,6 C 86 % 1013,3 hPa 0,0 l/m 0 min 0 min 0 W/m 16,1 km/h (3 Bft) 95,74 %
07.01.2022 05:18 3,3 C 2,8 C 0,6 C 86 % 1013,2 hPa 0,0 l/m 0 min 0 min 0 W/m 19,3 km/h (3 Bft) 93,62 %
07.01.2022 05:20 3,3 C 2,8 C 0,6 C 86 % 1013,2 hPa 0,0 l/m 0 min 0 min 0 W/m 12,9 km/h (3 Bft) 97,14 %
07.01.2022 05:22 3,3 C 2,8 C 0,6 C 86 % 1013,1 hPa 0,0 l/m 0 min 0 min 0 W/m 16,1 km/h (3 Bft) 91,49 %
07.01.2022 05:24 3,4 C 2,8 C 0,6 C 86 % 1013,1 hPa 0,0 l/m 0 min 0 min 0 W/m 16,1 km/h (3 Bft) 98,25 %
07.01.2022 05:26 3,4 C 2,8 C 0,6 C 86 % 1013,1 hPa 0,0 l/m 0 min 0 min 0 W/m 22,5 km/h (4 Bft) 95,74 %
07.01.2022 05:28 3,4 C 2,8 C 0,6 C 85 % 1013,1 hPa 0,0 l/m 0 min 0 min 0 W/m 12,9 km/h (3 Bft) 97,87 %
07.01.2022 05:30 3,4 C 2,8 C 0,6 C 85 % 1013,1 hPa 0,0 l/m 0 min 0 min 0 W/m 16,1 km/h (3 Bft) 97,87 %
07.01.2022 05:32 3,4 C 2,8 C 0,6 C 85 % 1013,2 hPa 0,0 l/m 0 min 0 min 0 W/m 19,3 km/h (3 Bft) 95,83 %
07.01.2022 05:34 3,5 C 2,8 C 0,6 C 85 % 1013,2 hPa 0,0 l/m 0 min 0 min 0 W/m 12,9 km/h (3 Bft) 97,14 %
07.01.2022 05:36 3,5 C 2,8 C 0,6 C 85 % 1013,2 hPa 0,0 l/m 0 min 0 min 0 W/m 16,1 km/h (3 Bft) 94,74 %
07.01.2022 05:38 3,5 C 2,8 C 0,6 C 85 % 1013,1 hPa 0,0 l/m 0 min 0 min 0 W/m 16,1 km/h (3 Bft) 97,87 %
07.01.2022 05:40 3,5 C 2,8 C 0,6 C 85 % 1013,1 hPa 0,0 l/m 0 min 0 min 0 W/m 25,7 km/h (4 Bft) 97,87 %
07.01.2022 05:42 3,5 C 2,8 C 1,1 C 85 % 1013,0 hPa 0,0 l/m 0 min 0 min 0 W/m 16,1 km/h (3 Bft) 95,74 %
07.01.2022 05:44 3,6 C 2,8 C 1,1 C 85 % 1013,1 hPa 0,0 l/m 0 min 0 min 0 W/m 32,2 km/h (5 Bft) 93,62 %
07.01.2022 05:46 3,6 C 2,8 C 1,1 C 85 % 1013,0 hPa 0,0 l/m 0 min 0 min 0 W/m 19,3 km/h (3 Bft) 95,65 %
07.01.2022 05:48 3,6 C 2,8 C 0,6 C 85 % 1013,0 hPa 0,0 l/m 0 min 0 min 0 W/m 22,5 km/h (4 Bft) 97,87 %
07.01.2022 05:50 3,6 C 2,8 C 0,6 C 85 % 1013,1 hPa 0,0 l/m 0 min 0 min 0 W/m 19,3 km/h (3 Bft) 93,62 %
07.01.2022 05:52 3,6 C 2,8 C 0,6 C 85 % 1013,0 hPa 0,0 l/m 0 min 0 min 0 W/m 29,0 km/h (5 Bft) 95,74 %
07.01.2022 05:54 3,6 C 2,8 C 0,6 C 85 % 1013,0 hPa 0,0 l/m 0 min 2 min 0 W/m 19,3 km/h (3 Bft) 95,74 %
07.01.2022 05:56 3,6 C 2,8 C 0,6 C 86 % 1013,1 hPa 0,0 l/m 0 min 2 min 0 W/m 35,4 km/h (5 Bft) 95,74 %
07.01.2022 05:58 3,6 C 2,8 C 0,0 C 86 % 1013,0 hPa 0,0 l/m 0 min 2 min 0 W/m 32,2 km/h (5 Bft) 95,65 %
07.01.2022 06:00 3,5 C 2,8 C 0,0 C 87 % 1013,0 hPa 0,0 l/m 0 min 2 min 0 W/m 22,5 km/h (4 Bft) 95,74 %
07.01.2022 06:02 3,5 C 2,8 C 0,0 C 87 % 1013,0 hPa 0,0 l/m 0 min 2 min 0 W/m 19,3 km/h (3 Bft) 95,83 %
07.01.2022 06:04 3,4 C 2,8 C 0,0 C 87 % 1013,0 hPa 0,2 l/m 0 min 2 min 0 W/m 19,3 km/h (3 Bft) 95,74 %
07.01.2022 06:06 3,4 C 2,2 C 0,0 C 88 % 1013,0 hPa 0,0 l/m 0 min 2 min 0 W/m 19,3 km/h (3 Bft) 95,74 %
07.01.2022 06:08 3,3 C 2,2 C 0,0 C 88 % 1013,0 hPa 0,0 l/m 0 min 2 min 0 W/m 22,5 km/h (4 Bft) 97,83 %
07.01.2022 06:10 3,3 C 2,2 C 0,0 C 88 % 1013,0 hPa 0,0 l/m 0 min 2 min 0 W/m 35,4 km/h (5 Bft) 95,74 %
07.01.2022 06:12 3,3 C 2,2 C 0,0 C 89 % 1013,0 hPa 0,2 l/m 0 min 2 min 0 W/m 25,7 km/h (4 Bft) 97,87 %
07.01.2022 06:14 3,3 C 2,2 C 0,0 C 89 % 1012,9 hPa 0,0 l/m 0 min 2 min 0 W/m 16,1 km/h (3 Bft) 97,87 %
07.01.2022 06:16 3,2 C 2,2 C 0,0 C 89 % 1012,9 hPa 0,0 l/m 0 min 2 min 0 W/m 16,1 km/h (3 Bft) 95,74 %
07.01.2022 06:18 3,2 C 2,2 C 0,0 C 89 % 1012,9 hPa 0,0 l/m 0 min 2 min 0 W/m 22,5 km/h (4 Bft) 95,74 %
07.01.2022 06:20 3,2 C 2,2 C 0,0 C 90 % 1013,0 hPa 0,0 l/m 0 min 2 min 0 W/m 32,2 km/h (5 Bft) 97,83 %
07.01.2022 06:22 3,2 C 2,2 C 0,0 C 90 % 1013,0 hPa 0,2 l/m 0 min 2 min 0 W/m 22,5 km/h (4 Bft) 97,87 %
07.01.2022 06:24 3,2 C 2,2 C 0,0 C 90 % 1013,0 hPa 0,0 l/m 0 min 2 min 0 W/m 29,0 km/h (5 Bft) 95,74 %
07.01.2022 06:26 3,1 C 2,2 C -0,6 C 90 % 1013,0 hPa 0,2 l/m 0 min 2 min 0 W/m 25,7 km/h (4 Bft) 97,87 %
07.01.2022 06:28 3,1 C 1,7 C -0,6 C 91 % 1013,0 hPa 0,0 l/m 0 min 2 min 0 W/m 19,3 km/h (3 Bft) 97,87 %
07.01.2022 06:30 3,0 C 1,7 C -0,6 C 91 % 1012,9 hPa 0,0 l/m 0 min 2 min 0 W/m 19,3 km/h (3 Bft) 97,87 %
07.01.2022 06:32 3,0 C 1,7 C -0,6 C 91 % 1012,9 hPa 0,0 l/m 0 min 2 min 0 W/m 19,3 km/h (3 Bft) 100,00 %
07.01.2022 06:34 3,0 C 1,7 C 0,0 C 91 % 1012,9 hPa 0,0 l/m 0 min 2 min 0 W/m 25,7 km/h (4 Bft) 100,00 %
07.01.2022 06:36 2,9 C 2,2 C 0,0 C 92 % 1012,8 hPa 0,0 l/m 0 min 0 min 0 W/m 22,5 km/h (4 Bft) 100,00 %
07.01.2022 06:38 2,9 C 1,7 C -0,6 C 92 % 1012,8 hPa 0,0 l/m 0 min 2 min 0 W/m 22,5 km/h (4 Bft) 100,00 %
07.01.2022 06:40 2,9 C 1,7 C 0,0 C 92 % 1012,8 hPa 0,2 l/m 0 min 2 min 0 W/m 16,1 km/h (3 Bft) 95,74 %
07.01.2022 06:42 2,9 C 1,7 C 0,0 C 92 % 1012,8 hPa 0,0 l/m 0 min 2 min 0 W/m 22,5 km/h (4 Bft) 100,00 %
07.01.2022 06:44 2,9 C 2,2 C 0,0 C 92 % 1012,8 hPa 0,0 l/m 0 min 2 min 0 W/m 19,3 km/h (3 Bft) 97,87 %
07.01.2022 06:46 2,9 C 2,2 C 0,0 C 92 % 1012,8 hPa 0,0 l/m 0 min 2 min 0 W/m 29,0 km/h (5 Bft) 97,83 %
07.01.2022 06:48 2,9 C 2,2 C 0,0 C 93 % 1012,8 hPa 0,0 l/m 0 min 2 min 0 W/m 16,1 km/h (3 Bft) 97,87 %
07.01.2022 06:50 2,9 C 2,2 C 0,0 C 93 % 1012,7 hPa 0,0 l/m 0 min 2 min 0 W/m 29,0 km/h (5 Bft) 97,87 %
07.01.2022 06:52 2,9 C 2,2 C 0,0 C 93 % 1012,7 hPa 0,0 l/m 0 min 2 min 0 W/m 19,3 km/h (3 Bft) 95,83 %
07.01.2022 06:54 2,8 C 2,2 C 0,0 C 93 % 1012,7 hPa 0,0 l/m 0 min 2 min 0 W/m 29,0 km/h (5 Bft) 95,74 %
07.01.2022 06:56 2,8 C 2,2 C 0,0 C 93 % 1012,7 hPa 0,0 l/m 0 min 2 min 0 W/m 19,3 km/h (3 Bft) 97,87 %
07.01.2022 06:58 2,8 C 2,2 C 0,0 C 93 % 1012,6 hPa 0,0 l/m 0 min 0 min 0 W/m 16,1 km/h (3 Bft) 97,83 %
07.01.2022 07:00 2,8 C 2,2 C 0,0 C 93 % 1012,5 hPa 0,0 l/m 0 min 0 min 0 W/m 22,5 km/h (4 Bft) 95,74 %
07.01.2022 07:02 2,8 C 2,2 C 0,0 C 93 % 1012,6 hPa 0,0 l/m 0 min 0 min 0 W/m 29,0 km/h (5 Bft) 97,87 %
07.01.2022 07:04 2,8 C 2,2 C 0,0 C 93 % 1012,6 hPa 0,0 l/m 0 min 2 min 0 W/m 29,0 km/h (5 Bft) 97,87 %
07.01.2022 07:06 2,8 C 2,2 C 0,0 C 93 % 1012,6 hPa 0,0 l/m 0 min 0 min 0 W/m 25,7 km/h (4 Bft) 97,87 %
07.01.2022 07:08 2,8 C 2,2 C 0,0 C 94 % 1012,5 hPa 0,0 l/m 0 min 2 min 0 W/m 29,0 km/h (5 Bft) 95,74 %
07.01.2022 07:10 2,8 C 2,2 C 0,0 C 94 % 1012,6 hPa 0,0 l/m 0 min 2 min 0 W/m 22,5 km/h (4 Bft) 97,83 %
07.01.2022 07:12 2,8 C 2,2 C 0,0 C 94 % 1012,6 hPa 0,0 l/m 0 min 0 min 0 W/m 19,3 km/h (3 Bft) 95,74 %
07.01.2022 07:14 2,8 C 2,2 C 0,0 C 94 % 1012,6 hPa 0,0 l/m 0 min 2 min 0 W/m 32,2 km/h (5 Bft) 97,87 %
07.01.2022 07:16 2,8 C 2,2 C 0,0 C 94 % 1012,6 hPa 0,0 l/m 0 min 2 min 0 W/m 25,7 km/h (4 Bft) 97,87 %
07.01.2022 07:18 2,8 C 2,2 C 0,0 C 94 % 1012,6 hPa 0,0 l/m 0 min 0 min 0 W/m 16,1 km/h (3 Bft) 100,00 %
07.01.2022 07:20 2,8 C 2,2 C 0,0 C 94 % 1012,6 hPa 0,0 l/m 0 min 0 min 0 W/m 19,3 km/h (3 Bft) 97,87 %
07.01.2022 07:22 2,8 C 2,2 C 0,0 C 94 % 1012,5 hPa 0,0 l/m 0 min 0 min 0 W/m 19,3 km/h (3 Bft) 100,00 %
07.01.2022 07:24 2,8 C 2,2 C 0,0 C 94 % 1012,5 hPa 0,0 l/m 0 min 0 min 0 W/m 25,7 km/h (4 Bft) 100,00 %
07.01.2022 07:26 2,8 C 2,2 C 0,0 C 94 % 1012,5 hPa 0,0 l/m 0 min 0 min 0 W/m 19,3 km/h (3 Bft) 100,00 %
07.01.2022 07:28 2,8 C 2,2 C 0,0 C 94 % 1012,5 hPa 0,0 l/m 0 min 0 min 0 W/m 29,0 km/h (5 Bft) 100,00 %
07.01.2022 07:30 2,8 C 2,2 C 0,0 C 94 % 1012,5 hPa 0,0 l/m 0 min 0 min 0 W/m 22,5 km/h (4 Bft) 100,00 %
07.01.2022 07:32 2,8 C 2,2 C 0,0 C 94 % 1012,5 hPa 0,0 l/m 0 min 0 min 0 W/m 25,7 km/h (4 Bft) 100,00 %
07.01.2022 07:34 2,9 C 2,2 C 0,0 C 94 % 1012,6 hPa 0,0 l/m 0 min 0 min 0 W/m 22,5 km/h (4 Bft) 100,00 %
07.01.2022 07:36 2,9 C 2,2 C 0,0 C 94 % 1012,5 hPa 0,0 l/m 0 min 0 min 0 W/m 16,1 km/h (3 Bft) 100,00 %
07.01.2022 07:38 2,9 C 2,2 C 0,0 C 94 % 1012,5 hPa 0,0 l/m 0 min 2 min 0 W/m 22,5 km/h (4 Bft) 100,00 %
07.01.2022 07:40 2,9 C 2,2 C 0,0 C 94 % 1012,5 hPa 0,0 l/m 0 min 2 min 0 W/m 38,6 km/h (5 Bft) 100,00 %
07.01.2022 07:42 2,9 C 2,2 C 0,0 C 94 % 1012,5 hPa 0,0 l/m 0 min 2 min 0 W/m 16,1 km/h (3 Bft) 100,00 %
07.01.2022 07:44 2,9 C 2,2 C 0,0 C 94 % 1012,4 hPa 0,0 l/m 0 min 2 min 0 W/m 32,2 km/h (5 Bft) 97,87 %
07.01.2022 07:46 3,0 C 2,2 C 0,0 C 94 % 1012,3 hPa 0,0 l/m 0 min 2 min 0 W/m 19,3 km/h (3 Bft) 100,00 %
07.01.2022 07:48 3,0 C 2,2 C 0,0 C 94 % 1012,4 hPa 0,0 l/m 0 min 2 min 0 W/m 22,5 km/h (4 Bft) 100,00 %
07.01.2022 07:50 3,1 C 2,8 C 0,0 C 94 % 1012,4 hPa 0,0 l/m 0 min 2 min 0 W/m 29,0 km/h (5 Bft) 100,00 %
07.01.2022 07:52 3,1 C 2,8 C 0,0 C 94 % 1012,4 hPa 0,0 l/m 0 min 2 min 0 W/m 38,6 km/h (5 Bft) 100,00 %
07.01.2022 07:54 3,1 C 2,8 C 0,0 C 94 % 1012,4 hPa 0,0 l/m 0 min 2 min 0 W/m 25,7 km/h (4 Bft) 100,00 %
07.01.2022 07:56 3,1 C 2,8 C 0,0 C 94 % 1012,4 hPa 0,0 l/m 0 min 0 min 0 W/m 22,5 km/h (4 Bft) 100,00 %
07.01.2022 07:58 3,1 C 2,8 C 0,0 C 94 % 1012,5 hPa 0,0 l/m 0 min 0 min 0 W/m 19,3 km/h (3 Bft) 100,00 %
07.01.2022 08:00 3,1 C 2,8 C 0,0 C 94 % 1012,4 hPa 0,0 l/m 0 min 0 min 0 W/m 32,2 km/h (5 Bft) 97,87 %
07.01.2022 08:02 3,1 C 2,8 C 0,0 C 94 % 1012,5 hPa 0,0 l/m 0 min 0 min 0 W/m 16,1 km/h (3 Bft) 100,00 %
07.01.2022 08:04 3,2 C 2,8 C 0,0 C 94 % 1012,5 hPa 0,0 l/m 0 min 0 min 0 W/m 22,5 km/h (4 Bft) 97,87 %
07.01.2022 08:06 3,2 C 2,8 C 0,0 C 94 % 1012,5 hPa 0,0 l/m 0 min 0 min 0 W/m 35,4 km/h (5 Bft) 100,00 %
07.01.2022 08:08 3,2 C 2,8 C 0,0 C 94 % 1012,5 hPa 0,0 l/m 0 min 0 min 0 W/m 22,5 km/h (4 Bft) 97,83 %
07.01.2022 08:10 3,2 C 2,8 C 0,0 C 94 % 1012,5 hPa 0,0 l/m 0 min 0 min 0 W/m 16,1 km/h (3 Bft) 97,87 %
07.01.2022 08:12 3,2 C 2,8 C 0,6 C 94 % 1012,5 hPa 0,0 l/m 0 min 0 min 0 W/m 29,0 km/h (5 Bft) 97,87 %
07.01.2022 08:14 3,3 C 2,8 C 0,6 C 94 % 1012,5 hPa 0,0 l/m 0 min 0 min 0 W/m 35,4 km/h (5 Bft) 100,00 %
07.01.2022 08:16 3,3 C 2,8 C 0,6 C 94 % 1012,4 hPa 0,2 l/m 0 min 0 min 0 W/m 25,7 km/h (4 Bft) 100,00 %
07.01.2022 08:18 3,3 C 2,8 C 0,6 C 94 % 1012,4 hPa 0,0 l/m 0 min 0 min 0 W/m 22,5 km/h (4 Bft) 97,87 %
07.01.2022 08:20 3,3 C 2,8 C 0,6 C 94 % 1012,4 hPa 0,0 l/m 0 min 0 min 0 W/m 22,5 km/h (4 Bft) 97,83 %
07.01.2022 08:22 3,3 C 2,8 C 0,6 C 94 % 1012,4 hPa 0,0 l/m 0 min 0 min 0 W/m 29,0 km/h (5 Bft) 95,74 %
07.01.2022 08:24 3,3 C 2,8 C 0,6 C 94 % 1012,4 hPa 0,0 l/m 0 min 0 min 0 W/m 25,7 km/h (4 Bft) 95,74 %
07.01.2022 08:26 3,4 C 2,8 C 0,6 C 94 % 1012,4 hPa 0,0 l/m 0 min 0 min 0 W/m 22,5 km/h (4 Bft) 95,74 %
07.01.2022 08:28 3,4 C 2,8 C 0,6 C 94 % 1012,5 hPa 0,0 l/m 0 min 0 min 0 W/m 22,5 km/h (4 Bft) 91,49 %
07.01.2022 08:30 3,4 C 2,8 C 0,6 C 94 % 1012,4 hPa 0,0 l/m 0 min 0 min 0 W/m 22,5 km/h (4 Bft) 95,74 %
07.01.2022 08:32 3,4 C 2,8 C 0,6 C 94 % 1012,4 hPa 0,0 l/m 0 min 0 min 0 W/m 25,7 km/h (4 Bft) 93,48 %
07.01.2022 08:34 3,4 C 2,8 C 0,6 C 94 % 1012,4 hPa 0,0 l/m 0 min 0 min 0 W/m 29,0 km/h (5 Bft) 91,49 %
07.01.2022 08:36 3,5 C 2,8 C 0,6 C 94 % 1012,5 hPa 0,0 l/m 0 min 0 min 0 W/m 22,5 km/h (4 Bft) 89,36 %
07.01.2022 08:38 3,5 C 2,8 C 0,6 C 94 % 1012,4 hPa 0,0 l/m 0 min 0 min 0 W/m 29,0 km/h (5 Bft) 95,74 %
07.01.2022 08:40 3,5 C 2,8 C 0,6 C 94 % 1012,4 hPa 0,0 l/m 0 min 0 min 0 W/m 29,0 km/h (5 Bft) 93,62 %
07.01.2022 08:42 3,6 C 2,8 C 0,6 C 94 % 1012,4 hPa 0,0 l/m 0 min 0 min 0 W/m 25,7 km/h (4 Bft) 89,36 %
07.01.2022 08:44 3,6 C 2,8 C 0,6 C 94 % 1012,4 hPa 0,0 l/m 0 min 0 min 0 W/m 32,2 km/h (5 Bft) 93,48 %
07.01.2022 08:46 3,6 C 2,8 C 0,6 C 94 % 1012,4 hPa 0,0 l/m 0 min 0 min 0 W/m 25,7 km/h (4 Bft) 92,45 %
07.01.2022 08:48 3,6 C 2,8 C 0,6 C 94 % 1012,5 hPa 0,0 l/m 0 min 0 min 0 W/m 25,7 km/h (4 Bft) 91,49 %
07.01.2022 08:50 3,6 C 2,8 C 0,6 C 93 % 1012,5 hPa 0,0 l/m 0 min 0 min 0 W/m 16,1 km/h (3 Bft) 93,62 %
07.01.2022 08:52 3,6 C 2,8 C 0,6 C 93 % 1012,6 hPa 0,0 l/m 0 min 0 min 0 W/m 16,1 km/h (3 Bft) 91,49 %
07.01.2022 08:54 3,6 C 3,3 C 0,6 C 93 % 1012,6 hPa 0,0 l/m 0 min 0 min 0 W/m 22,5 km/h (4 Bft) 93,48 %
07.01.2022 08:56 3,6 C 3,3 C 0,6 C 93 % 1012,6 hPa 0,0 l/m 0 min 0 min 0 W/m 19,3 km/h (3 Bft) 93,62 %
07.01.2022 08:58 3,6 C 3,3 C 0,6 C 93 % 1012,6 hPa 0,0 l/m 0 min 0 min 0 W/m 19,3 km/h (3 Bft) 93,62 %
07.01.2022 09:00 3,6 C 3,3 C 0,6 C 93 % 1012,7 hPa 0,0 l/m 0 min 0 min 0 W/m 25,7 km/h (4 Bft) 95,74 %
07.01.2022 09:02 3,7 C 3,3 C 0,6 C 93 % 1012,6 hPa 0,0 l/m 0 min 0 min 0 W/m 32,2 km/h (5 Bft) 95,74 %
07.01.2022 09:04 3,7 C 3,3 C 0,6 C 93 % 1012,6 hPa 0,0 l/m 0 min 0 min 0 W/m 16,1 km/h (3 Bft) 93,62 %
07.01.2022 09:06 3,7 C 3,3 C 0,6 C 93 % 1012,7 hPa 0,0 l/m 0 min 0 min 0 W/m 16,1 km/h (3 Bft) 95,65 %
07.01.2022 09:08 3,7 C 3,3 C 0,6 C 93 % 1012,6 hPa 0,0 l/m 0 min 0 min 0 W/m 25,7 km/h (4 Bft) 95,74 %
07.01.2022 09:10 3,7 C 3,3 C 0,6 C 93 % 1012,6 hPa 0,0 l/m 0 min 0 min 2 W/m 29,0 km/h (5 Bft) 97,87 %
07.01.2022 09:12 3,7 C 3,3 C 0,6 C 93 % 1012,6 hPa 0,0 l/m 0 min 0 min 5 W/m 16,1 km/h (3 Bft) 97,87 %
07.01.2022 09:14 3,7 C 3,3 C 0,6 C 93 % 1012,6 hPa 0,0 l/m 0 min 0 min 5 W/m 22,5 km/h (4 Bft) 100,00 %
07.01.2022 09:16 3,7 C 3,3 C 0,6 C 93 % 1012,6 hPa 0,0 l/m 0 min 0 min 7 W/m 19,3 km/h (3 Bft) 97,87 %
07.01.2022 09:18 3,7 C 3,3 C 0,6 C 93 % 1012,7 hPa 0,0 l/m 0 min 0 min 7 W/m 22,5 km/h (4 Bft) 97,56 %
07.01.2022 09:20 3,7 C 3,3 C 0,6 C 93 % 1012,6 hPa 0,0 l/m 0 min 0 min 8 W/m 29,0 km/h (5 Bft) 100,00 %
07.01.2022 09:22 3,7 C 3,3 C 0,6 C 93 % 1012,6 hPa 0,0 l/m 0 min 0 min 7 W/m 22,5 km/h (4 Bft) 100,00 %
07.01.2022 09:24 3,7 C 3,3 C 0,6 C 93 % 1012,6 hPa 0,0 l/m 0 min 0 min 7 W/m 22,5 km/h (4 Bft) 100,00 %
07.01.2022 09:26 3,7 C 3,3 C 0,6 C 93 % 1012,6 hPa 0,0 l/m 0 min 0 min 9 W/m 22,5 km/h (4 Bft) 100,00 %
07.01.2022 09:28 3,7 C 3,3 C 0,6 C 93 % 1012,5 hPa 0,0 l/m 0 min 0 min 7 W/m 29,0 km/h (5 Bft) 100,00 %
07.01.2022 09:30 3,7 C 3,3 C 0,6 C 93 % 1012,5 hPa 0,0 l/m 0 min 0 min 9 W/m 22,5 km/h (4 Bft) 100,00 %
07.01.2022 09:32 3,7 C 3,3 C 0,6 C 93 % 1012,5 hPa 0,0 l/m 0 min 0 min 9 W/m 16,1 km/h (3 Bft) 100,00 %
07.01.2022 09:34 3,7 C 3,3 C 0,6 C 93 % 1012,5 hPa 0,0 l/m 0 min 0 min 12 W/m 25,7 km/h (4 Bft) 100,00 %
07.01.2022 09:36 3,7 C 3,3 C 0,6 C 93 % 1012,4 hPa 0,0 l/m 0 min 0 min 15 W/m 22,5 km/h (4 Bft) 100,00 %
07.01.2022 09:38 3,7 C 3,3 C 0,6 C 93 % 1012,4 hPa 0,0 l/m 0 min 0 min 15 W/m 35,4 km/h (5 Bft) 100,00 %
07.01.2022 09:40 3,8 C 3,3 C 0,6 C 93 % 1012,3 hPa 0,0 l/m 0 min 0 min 18 W/m 35,4 km/h (5 Bft) 100,00 %
07.01.2022 09:42 3,8 C 3,3 C 0,6 C 93 % 1012,4 hPa 0,0 l/m 0 min 0 min 19 W/m 22,5 km/h (4 Bft) 100,00 %
07.01.2022 09:44 3,8 C 3,3 C 0,6 C 93 % 1012,3 hPa 0,0 l/m 0 min 0 min 19 W/m 25,7 km/h (4 Bft) 100,00 %
07.01.2022 09:46 3,8 C 3,3 C 0,6 C 93 % 1012,3 hPa 0,0 l/m 0 min 0 min 21 W/m 22,5 km/h (4 Bft) 100,00 %
07.01.2022 09:48 3,8 C 3,3 C 0,6 C 93 % 1012,2 hPa 0,0 l/m 0 min 0 min 23 W/m 19,3 km/h (3 Bft) 100,00 %
07.01.2022 09:50 3,8 C 3,3 C 0,6 C 93 % 1012,2 hPa 0,0 l/m 0 min 0 min 27 W/m 29,0 km/h (5 Bft) 100,00 %
07.01.2022 09:52 3,8 C 3,3 C 0,6 C 93 % 1012,1 hPa 0,0 l/m 0 min 0 min 30 W/m 25,7 km/h (4 Bft) 97,87 %
07.01.2022 09:54 3,8 C 3,3 C 0,6 C 93 % 1012,1 hPa 0,0 l/m 0 min 0 min 28 W/m 29,0 km/h (5 Bft) 100,00 %
07.01.2022 09:56 3,9 C 3,3 C 0,6 C 92 % 1012,2 hPa 0,0 l/m 0 min 0 min 22 W/m 29,0 km/h (5 Bft) 100,00 %
07.01.2022 09:58 3,9 C 3,3 C 0,6 C 92 % 1012,2 hPa 0,0 l/m 0 min 0 min 15 W/m 35,4 km/h (5 Bft) 100,00 %
07.01.2022 10:00 3,9 C 3,3 C 0,6 C 92 % 1012,3 hPa 0,0 l/m 0 min 0 min 15 W/m 22,5 km/h (4 Bft) 100,00 %
07.01.2022 10:02 3,9 C 3,3 C 0,6 C 92 % 1012,2 hPa 0,0 l/m 0 min 0 min 16 W/m 29,0 km/h (5 Bft) 100,00 %
07.01.2022 10:04 3,9 C 3,3 C 0,6 C 92 % 1012,3 hPa 0,0 l/m 0 min 0 min 16 W/m 25,7 km/h (4 Bft) 100,00 %
07.01.2022 10:06 3,9 C 3,3 C 0,6 C 92 % 1012,3 hPa 0,0 l/m 0 min 0 min 16 W/m 22,5 km/h (4 Bft) 100,00 %
07.01.2022 10:08 3,9 C 3,3 C 0,6 C 92 % 1012,4 hPa 0,0 l/m 0 min 0 min 14 W/m 19,3 km/h (3 Bft) 100,00 %
07.01.2022 10:10 3,9 C 3,3 C 0,6 C 92 % 1012,4 hPa 0,0 l/m 0 min 0 min 14 W/m 16,1 km/h (3 Bft) 100,00 %
07.01.2022 10:12 3,9 C 3,3 C 0,6 C 92 % 1012,4 hPa 0,0 l/m 0 min 0 min 15 W/m 16,1 km/h (3 Bft) 100,00 %
07.01.2022 10:14 3,9 C 3,3 C 0,6 C 92 % 1012,4 hPa 0,0 l/m 0 min 0 min 24 W/m 22,5 km/h (4 Bft) 100,00 %
07.01.2022 10:16 3,9 C 3,3 C 1,1 C 92 % 1012,4 hPa 0,0 l/m 0 min 0 min 24 W/m 12,9 km/h (3 Bft) 100,00 %
07.01.2022 10:18 4,0 C 3,3 C 1,1 C 92 % 1012,3 hPa 0,0 l/m 0 min 0 min 24 W/m 25,7 km/h (4 Bft) 100,00 %
07.01.2022 10:20 4,0 C 3,3 C 1,1 C 92 % 1012,3 hPa 0,0 l/m 0 min 0 min 26 W/m 19,3 km/h (3 Bft) 100,00 %
07.01.2022 10:22 4,0 C 3,3 C 1,1 C 92 % 1012,2 hPa 0,0 l/m 0 min 0 min 30 W/m 22,5 km/h (4 Bft) 100,00 %
07.01.2022 10:24 4,0 C 3,3 C 1,1 C 92 % 1012,2 hPa 0,0 l/m 0 min 0 min 32 W/m 29,0 km/h (5 Bft) 100,00 %
07.01.2022 10:26 4,1 C 3,3 C 1,1 C 92 % 1012,3 hPa 0,0 l/m 0 min 0 min 29 W/m 25,7 km/h (4 Bft) 97,87 %
07.01.2022 10:28 4,1 C 3,3 C 1,1 C 92 % 1012,3 hPa 0,0 l/m 0 min 0 min 33 W/m 35,4 km/h (5 Bft) 100,00 %
07.01.2022 10:30 4,1 C 3,3 C 1,1 C 92 % 1012,2 hPa 0,0 l/m 0 min 0 min 35 W/m 22,5 km/h (4 Bft) 97,87 %
07.01.2022 10:32 4,1 C 3,3 C 1,1 C 92 % 1012,3 hPa 0,0 l/m 0 min 0 min 32 W/m 19,3 km/h (3 Bft) 100,00 %
07.01.2022 10:34 4,1 C 3,9 C 1,1 C 92 % 1012,2 hPa 0,0 l/m 0 min 0 min 35 W/m 22,5 km/h (4 Bft) 97,56 %
07.01.2022 10:36 4,1 C 3,9 C 1,1 C 92 % 1012,3 hPa 0,0 l/m 0 min 0 min 35 W/m 19,3 km/h (3 Bft) 97,87 %
07.01.2022 10:38 4,1 C 3,9 C 1,1 C 92 % 1012,3 hPa 0,0 l/m 0 min 0 min 40 W/m 35,4 km/h (5 Bft) 95,74 %
07.01.2022 10:40 4,1 C 3,9 C 1,1 C 92 % 1012,2 hPa 0,0 l/m 0 min 0 min 44 W/m 29,0 km/h (5 Bft) 95,74 %
07.01.2022 10:42 4,1 C 3,9 C 1,1 C 91 % 1012,3 hPa 0,0 l/m 0 min 0 min 51 W/m 19,3 km/h (3 Bft) 97,83 %
07.01.2022 10:44 4,1 C 3,9 C 1,1 C 91 % 1012,2 hPa 0,0 l/m 0 min 0 min 58 W/m 32,2 km/h (5 Bft) 97,87 %
07.01.2022 10:46 4,1 C 3,9 C 1,1 C 91 % 1012,3 hPa 0,0 l/m 0 min 0 min 55 W/m 19,3 km/h (3 Bft) 94,34 %
07.01.2022 10:48 4,2 C 3,9 C 1,1 C 91 % 1012,3 hPa 0,0 l/m 0 min 0 min 53 W/m 19,3 km/h (3 Bft) 97,56 %
07.01.2022 10:50 4,2 C 3,9 C 1,1 C 91 % 1012,3 hPa 0,0 l/m 0 min 0 min 48 W/m 19,3 km/h (3 Bft) 93,62 %
07.01.2022 10:52 4,2 C 3,9 C 1,1 C 91 % 1012,4 hPa 0,0 l/m 0 min 0 min 53 W/m 25,7 km/h (4 Bft) 95,74 %
07.01.2022 10:54 4,2 C 3,9 C 1,1 C 91 % 1012,4 hPa 0,0 l/m 0 min 0 min 57 W/m 25,7 km/h (4 Bft) 95,65 %
07.01.2022 10:56 4,2 C 3,9 C 1,1 C 91 % 1012,5 hPa 0,0 l/m 0 min 0 min 60 W/m 29,0 km/h (5 Bft) 93,62 %
07.01.2022 10:58 4,2 C 3,9 C 1,1 C 91 % 1012,4 hPa 0,0 l/m 0 min 0 min 58 W/m 25,7 km/h (4 Bft) 93,62 %
07.01.2022 11:00 4,2 C 3,9 C 1,1 C 91 % 1012,3 hPa 0,0 l/m 0 min 0 min 55 W/m 22,5 km/h (4 Bft) 95,74 %
07.01.2022 11:02 4,3 C 3,9 C 1,1 C 91 % 1012,4 hPa 0,0 l/m 0 min 0 min 55 W/m 22,5 km/h (4 Bft) 95,74 %
07.01.2022 11:04 4,3 C 3,9 C 1,1 C 91 % 1012,3 hPa 0,0 l/m 0 min 0 min 48 W/m 35,4 km/h (5 Bft) 93,62 %
07.01.2022 11:06 4,3 C 3,9 C 1,1 C 91 % 1012,3 hPa 0,0 l/m 0 min 0 min 46 W/m 16,1 km/h (3 Bft) 97,83 %
07.01.2022 11:08 4,3 C 3,9 C 1,1 C 91 % 1012,3 hPa 0,0 l/m 0 min 0 min 46 W/m 16,1 km/h (3 Bft) 97,87 %
07.01.2022 11:10 4,3 C 3,9 C 1,1 C 91 % 1012,4 hPa 0,0 l/m 0 min 0 min 51 W/m 29,0 km/h (5 Bft) 97,87 %
07.01.2022 11:12 4,3 C 3,9 C 1,1 C 91 % 1012,4 hPa 0,0 l/m 0 min 0 min 43 W/m 38,6 km/h (5 Bft) 97,87 %
07.01.2022 11:14 4,3 C 3,9 C 1,1 C 91 % 1012,4 hPa 0,0 l/m 0 min 0 min 40 W/m 29,0 km/h (5 Bft) 94,34 %
07.01.2022 11:16 4,3 C 3,9 C 1,1 C 91 % 1012,3 hPa 0,0 l/m 0 min 0 min 43 W/m 29,0 km/h (5 Bft) 97,83 %
07.01.2022 11:18 4,3 C 3,9 C 1,1 C 91 % 1012,3 hPa 0,0 l/m 0 min 0 min 43 W/m 16,1 km/h (3 Bft) 95,74 %
07.01.2022 11:20 4,3 C 3,9 C 1,1 C 91 % 1012,3 hPa 0,0 l/m 0 min 0 min 38 W/m 25,7 km/h (4 Bft) 97,87 %
07.01.2022 11:22 4,3 C 3,9 C 1,1 C 91 % 1012,3 hPa 0,0 l/m 0 min 0 min 35 W/m 32,2 km/h (5 Bft) 91,49 %
07.01.2022 11:24 4,3 C 3,9 C 1,1 C 91 % 1012,3 hPa 0,0 l/m 0 min 0 min 37 W/m 22,5 km/h (4 Bft) 93,62 %
07.01.2022 11:26 4,3 C 3,9 C 1,1 C 91 % 1012,3 hPa 0,0 l/m 0 min 0 min 36 W/m 16,1 km/h (3 Bft) 95,74 %
07.01.2022 11:28 4,3 C 3,9 C 1,1 C 91 % 1012,3 hPa 0,0 l/m 0 min 0 min 45 W/m 22,5 km/h (4 Bft) 95,65 %
07.01.2022 11:30 4,3 C 3,9 C 1,1 C 91 % 1012,3 hPa 0,0 l/m 0 min 0 min 54 W/m 29,0 km/h (5 Bft) 95,74 %
07.01.2022 11:32 4,3 C 3,9 C 1,1 C 91 % 1012,3 hPa 0,0 l/m 0 min 0 min 67 W/m 16,1 km/h (3 Bft) 97,87 %
07.01.2022 11:34 4,3 C 3,9 C 1,1 C 91 % 1012,3 hPa 0,0 l/m 0 min 0 min 73 W/m 38,6 km/h (5 Bft) 97,87 %
07.01.2022 11:36 4,4 C 3,9 C 1,1 C 91 % 1012,2 hPa 0,0 l/m 0 min 0 min 80 W/m 25,7 km/h (4 Bft) 97,87 %
07.01.2022 11:38 4,4 C 3,9 C 1,1 C 91 % 1012,2 hPa 0,0 l/m 0 min 0 min 72 W/m 22,5 km/h (4 Bft) 95,74 %
07.01.2022 11:40 4,4 C 3,9 C 1,1 C 91 % 1012,1 hPa 0,0 l/m 0 min 0 min 72 W/m 25,7 km/h (4 Bft) 95,65 %
07.01.2022 11:42 4,4 C 3,9 C 1,1 C 91 % 1012,1 hPa 0,0 l/m 0 min 0 min 68 W/m 22,5 km/h (4 Bft) 95,74 %
07.01.2022 11:44 4,4 C 3,9 C 1,1 C 91 % 1012,1 hPa 0,0 l/m 0 min 0 min 54 W/m 22,5 km/h (4 Bft) 97,87 %
07.01.2022 11:46 4,4 C 3,9 C 1,1 C 91 % 1012,0 hPa 0,0 l/m 0 min 0 min 48 W/m 22,5 km/h (4 Bft) 95,74 %
07.01.2022 11:48 4,4 C 3,9 C 1,1 C 91 % 1012,1 hPa 0,0 l/m 0 min 0 min 48 W/m 19,3 km/h (3 Bft) 97,87 %
07.01.2022 11:50 4,5 C 3,9 C 1,1 C 91 % 1012,1 hPa 0,0 l/m 0 min 0 min 43 W/m 22,5 km/h (4 Bft) 97,87 %
07.01.2022 11:52 4,5 C 3,9 C 1,1 C 91 % 1012,0 hPa 0,0 l/m 0 min 0 min 46 W/m 22,5 km/h (4 Bft) 97,83 %
07.01.2022 11:54 4,5 C 4,4 C 1,1 C 91 % 1012,1 hPa 0,0 l/m 0 min 0 min 58 W/m 22,5 km/h (4 Bft) 97,87 %
07.01.2022 11:56 4,5 C 4,4 C 1,1 C 91 % 1011,9 hPa 0,0 l/m 0 min 0 min 100 W/m 29,0 km/h (5 Bft) 97,87 %
07.01.2022 11:58 4,5 C 4,4 C 1,1 C 91 % 1011,9 hPa 0,0 l/m 0 min 0 min 107 W/m 22,5 km/h (4 Bft) 95,74 %
07.01.2022 12:00 4,5 C 4,4 C 1,1 C 91 % 1011,9 hPa 0,0 l/m 0 min 0 min 90 W/m 29,0 km/h (5 Bft) 97,87 %
07.01.2022 12:02 4,6 C 4,4 C 1,1 C 91 % 1012,0 hPa 0,0 l/m 0 min 0 min 84 W/m 25,7 km/h (4 Bft) 97,56 %
07.01.2022 12:04 4,6 C 4,4 C 1,1 C 91 % 1012,0 hPa 0,0 l/m 0 min 0 min 106 W/m 29,0 km/h (5 Bft) 95,65 %
07.01.2022 12:06 4,6 C 4,4 C 1,1 C 90 % 1012,0 hPa 0,0 l/m 0 min 0 min 125 W/m 29,0 km/h (5 Bft) 98,11 %
07.01.2022 12:08 4,6 C 5,0 C 1,1 C 90 % 1011,9 hPa 0,0 l/m 0 min 0 min 132 W/m 32,2 km/h (5 Bft) 97,56 %
07.01.2022 12:10 4,7 C 4,4 C 1,1 C 90 % 1011,8 hPa 0,0 l/m 0 min 0 min 126 W/m 19,3 km/h (3 Bft) 97,87 %
07.01.2022 12:12 4,7 C 4,4 C 1,7 C 90 % 1011,9 hPa 0,0 l/m 0 min 0 min 92 W/m 19,3 km/h (3 Bft) 97,87 %
07.01.2022 12:14 4,7 C 4,4 C 1,7 C 90 % 1011,9 hPa 0,0 l/m 0 min 0 min 80 W/m 22,5 km/h (4 Bft) 100,00 %
07.01.2022 12:16 4,7 C 4,4 C 1,7 C 90 % 1011,9 hPa 0,0 l/m 0 min 0 min 100 W/m 32,2 km/h (5 Bft) 97,87 %
07.01.2022 12:18 4,7 C 4,4 C 1,7 C 90 % 1011,9 hPa 0,0 l/m 0 min 0 min 127 W/m 25,7 km/h (4 Bft) 100,00 %
07.01.2022 12:20 4,8 C 4,4 C 1,7 C 90 % 1011,9 hPa 0,0 l/m 0 min 0 min 99 W/m 22,5 km/h (4 Bft) 100,00 %
07.01.2022 12:22 4,8 C 4,4 C 1,7 C 90 % 1011,8 hPa 0,0 l/m 0 min 0 min 88 W/m 22,5 km/h (4 Bft) 100,00 %
07.01.2022 12:24 4,8 C 4,4 C 1,7 C 90 % 1011,9 hPa 0,0 l/m 0 min 0 min 85 W/m 22,5 km/h (4 Bft) 100,00 %
07.01.2022 12:26 4,8 C 4,4 C 1,7 C 90 % 1011,8 hPa 0,0 l/m 0 min 0 min 71 W/m 32,2 km/h (5 Bft) 97,83 %
07.01.2022 12:28 4,8 C 4,4 C 2,2 C 90 % 1011,7 hPa 0,0 l/m 0 min 0 min 74 W/m 22,5 km/h (4 Bft) 97,87 %
07.01.2022 12:30 4,8 C 4,4 C 2,2 C 90 % 1011,7 hPa 0,0 l/m 0 min 0 min 62 W/m 12,9 km/h (3 Bft) 100,00 %
07.01.2022 12:32 4,8 C 4,4 C 2,2 C 90 % 1011,8 hPa 0,0 l/m 0 min 0 min 41 W/m 32,2 km/h (5 Bft) 100,00 %
07.01.2022 12:34 4,8 C 4,4 C 2,2 C 90 % 1011,8 hPa 0,0 l/m 0 min 0 min 39 W/m 29,0 km/h (5 Bft) 100,00 %
07.01.2022 12:36 4,8 C 4,4 C 2,2 C 90 % 1011,8 hPa 0,0 l/m 0 min 0 min 31 W/m 19,3 km/h (3 Bft) 97,87 %
07.01.2022 12:38 4,8 C 4,4 C 2,2 C 90 % 1011,8 hPa 0,0 l/m 0 min 0 min 30 W/m 29,0 km/h (5 Bft) 97,37 %
07.01.2022 12:40 4,8 C 4,4 C 2,2 C 90 % 1011,7 hPa 0,0 l/m 0 min 0 min 28 W/m 22,5 km/h (4 Bft) 97,83 %
07.01.2022 12:42 4,8 C 4,4 C 2,2 C 90 % 1011,6 hPa 0,0 l/m 0 min 0 min 34 W/m 22,5 km/h (4 Bft) 95,74 %
07.01.2022 12:44 4,8 C 4,4 C 2,2 C 90 % 1011,6 hPa 0,0 l/m 0 min 0 min 32 W/m 22,5 km/h (4 Bft) 97,87 %
07.01.2022 12:46 4,8 C 4,4 C 2,2 C 90 % 1011,6 hPa 0,0 l/m 0 min 0 min 31 W/m 32,2 km/h (5 Bft) 97,87 %
07.01.2022 12:48 4,8 C 4,4 C 2,2 C 90 % 1011,6 hPa 0,0 l/m 0 min 0 min 34 W/m 29,0 km/h (5 Bft) 97,87 %
07.01.2022 12:50 4,8 C 4,4 C 2,2 C 90 % 1011,6 hPa 0,0 l/m 0 min 0 min 43 W/m 22,5 km/h (4 Bft) 97,87 %
07.01.2022 12:52 4,8 C 4,4 C 2,2 C 90 % 1011,5 hPa 0,0 l/m 0 min 0 min 77 W/m 22,5 km/h (4 Bft) 97,96 %
07.01.2022 12:54 4,8 C 4,4 C 2,2 C 90 % 1011,5 hPa 0,0 l/m 0 min 0 min 102 W/m 25,7 km/h (4 Bft) 97,87 %
07.01.2022 12:56 4,9 C 4,4 C 2,2 C 90 % 1011,6 hPa 0,0 l/m 0 min 0 min 90 W/m 32,2 km/h (5 Bft) 97,87 %
07.01.2022 12:58 4,9 C 4,4 C 2,2 C 90 % 1011,6 hPa 0,0 l/m 0 min 0 min 90 W/m 29,0 km/h (5 Bft) 95,74 %
07.01.2022 13:00 4,9 C 5,0 C 2,2 C 90 % 1011,7 hPa 0,0 l/m 0 min 0 min 116 W/m 25,7 km/h (4 Bft) 97,87 %
07.01.2022 13:02 4,9 C 5,0 C 2,2 C 90 % 1011,8 hPa 0,0 l/m 0 min 0 min 97 W/m 29,0 km/h (5 Bft) 95,74 %
07.01.2022 13:04 5,0 C 5,0 C 2,2 C 90 % 1011,6 hPa 0,0 l/m 0 min 0 min 74 W/m 25,7 km/h (4 Bft) 97,83 %
07.01.2022 13:06 5,0 C 5,0 C 2,2 C 90 % 1011,7 hPa 0,0 l/m 0 min 0 min 76 W/m 25,7 km/h (4 Bft) 97,87 %
07.01.2022 13:08 5,1 C 5,0 C 2,2 C 90 % 1011,5 hPa 0,0 l/m 0 min 0 min 82 W/m 16,1 km/h (3 Bft) 97,87 %
07.01.2022 13:10 5,1 C 5,0 C 2,2 C 90 % 1011,5 hPa 0,0 l/m 0 min 0 min 83 W/m 22,5 km/h (4 Bft) 100,00 %
07.01.2022 13:12 5,1 C 5,0 C 2,2 C 90 % 1011,5 hPa 0,0 l/m 0 min 0 min 80 W/m 22,5 km/h (4 Bft) 97,87 %
07.01.2022 13:14 5,1 C 5,0 C 2,2 C 90 % 1011,5 hPa 0,0 l/m 0 min 0 min 86 W/m 25,7 km/h (4 Bft) 100,00 %
07.01.2022 13:16 5,1 C 5,0 C 2,2 C 90 % 1011,5 hPa 0,0 l/m 0 min 0 min 77 W/m 16,1 km/h (3 Bft) 97,83 %
07.01.2022 13:18 5,2 C 5,0 C 2,8 C 90 % 1011,5 hPa 0,0 l/m 0 min 0 min 70 W/m 22,5 km/h (4 Bft) 100,00 %
07.01.2022 13:20 5,2 C 5,0 C 2,8 C 90 % 1011,5 hPa 0,0 l/m 0 min 0 min 75 W/m 25,7 km/h (4 Bft) 100,00 %
07.01.2022 13:22 5,2 C 5,0 C 2,8 C 90 % 1011,5 hPa 0,0 l/m 0 min 0 min 66 W/m 19,3 km/h (3 Bft) 100,00 %
07.01.2022 13:24 5,2 C 5,0 C 2,8 C 90 % 1011,5 hPa 0,0 l/m 0 min 0 min 71 W/m 19,3 km/h (3 Bft) 100,00 %
07.01.2022 13:26 5,2 C 5,0 C 2,8 C 90 % 1011,5 hPa 0,0 l/m 0 min 0 min 77 W/m 25,7 km/h (4 Bft) 93,62 %
07.01.2022 13:28 5,2 C 5,0 C 2,8 C 90 % 1011,5 hPa 0,0 l/m 0 min 0 min 56 W/m 25,7 km/h (4 Bft) 97,83 %
07.01.2022 13:30 5,2 C 5,0 C 2,8 C 90 % 1011,4 hPa 0,0 l/m 0 min 0 min 48 W/m 22,5 km/h (4 Bft) 100,00 %
07.01.2022 13:32 5,3 C 5,0 C 2,8 C 90 % 1011,3 hPa 0,0 l/m 0 min 0 min 41 W/m 22,5 km/h (4 Bft) 95,74 %
07.01.2022 13:34 5,3 C 5,0 C 2,8 C 90 % 1011,3 hPa 0,0 l/m 0 min 0 min 37 W/m 29,0 km/h (5 Bft) 97,87 %
07.01.2022 13:36 5,3 C 5,0 C 2,8 C 90 % 1011,3 hPa 0,0 l/m 0 min 0 min 52 W/m 25,7 km/h (4 Bft) 93,62 %
07.01.2022 13:38 5,3 C 5,0 C 2,8 C 90 % 1011,4 hPa 0,0 l/m 0 min 0 min 59 W/m 25,7 km/h (4 Bft) 97,87 %
07.01.2022 13:40 5,3 C 5,0 C 2,8 C 90 % 1011,3 hPa 0,0 l/m 0 min 0 min 65 W/m 19,3 km/h (3 Bft) 97,83 %
07.01.2022 13:42 5,3 C 5,0 C 2,8 C 90 % 1011,2 hPa 0,0 l/m 0 min 0 min 77 W/m 19,3 km/h (3 Bft) 97,87 %
07.01.2022 13:44 5,4 C 5,0 C 2,8 C 90 % 1011,2 hPa 0,0 l/m 0 min 0 min 73 W/m 29,0 km/h (5 Bft) 97,87 %
07.01.2022 13:46 5,4 C 5,0 C 2,8 C 90 % 1011,2 hPa 0,0 l/m 0 min 0 min 95 W/m 29,0 km/h (5 Bft) 97,87 %
07.01.2022 13:48 5,4 C 5,0 C 2,8 C 90 % 1011,1 hPa 0,0 l/m 0 min 0 min 80 W/m 22,5 km/h (4 Bft) 97,87 %
07.01.2022 13:50 5,4 C 5,0 C 2,8 C 89 % 1011,1 hPa 0,0 l/m 0 min 0 min 68 W/m 22,5 km/h (4 Bft) 97,87 %
07.01.2022 13:52 5,5 C 5,0 C 2,8 C 89 % 1011,1 hPa 0,0 l/m 0 min 0 min 49 W/m 25,7 km/h (4 Bft) 95,65 %
07.01.2022 13:54 5,5 C 5,0 C 2,8 C 89 % 1011,1 hPa 0,0 l/m 0 min 0 min 60 W/m 16,1 km/h (3 Bft) 97,87 %
07.01.2022 13:56 5,6 C 6,7 C 2,8 C 89 % 1011,0 hPa 0,0 l/m 0 min 0 min 122 W/m 12,9 km/h (3 Bft) 97,87 %
07.01.2022 13:58 5,6 C 7,8 C 2,8 C 90 % 1011,0 hPa 0,0 l/m 2 min 0 min 253 W/m 12,9 km/h (3 Bft) 93,62 %
07.01.2022 14:00 5,7 C 7,8 C 2,8 C 90 % 1011,0 hPa 0,0 l/m 2 min 0 min 189 W/m 25,7 km/h (4 Bft) 95,74 %
07.01.2022 14:02 5,8 C 7,2 C 2,8 C 90 % 1010,9 hPa 0,0 l/m 2 min 0 min 176 W/m 25,7 km/h (4 Bft) 97,83 %
07.01.2022 14:04 5,9 C 6,7 C 2,8 C 89 % 1011,0 hPa 0,0 l/m 0 min 0 min 86 W/m 25,7 km/h (4 Bft) 97,87 %
07.01.2022 14:06 5,9 C 6,1 C 2,8 C 89 % 1011,1 hPa 0,0 l/m 0 min 0 min 46 W/m 22,5 km/h (4 Bft) 96,00 %
07.01.2022 14:08 5,9 C 5,6 C 2,8 C 89 % 1011,0 hPa 0,0 l/m 0 min 0 min 39 W/m 25,7 km/h (4 Bft) 93,62 %
07.01.2022 14:10 5,8 C 5,6 C 2,8 C 89 % 1011,0 hPa 0,0 l/m 0 min 0 min 33 W/m 35,4 km/h (5 Bft) 95,74 %
07.01.2022 14:12 5,8 C 5,6 C 2,8 C 89 % 1011,0 hPa 0,0 l/m 0 min 0 min 28 W/m 22,5 km/h (4 Bft) 95,74 %
07.01.2022 14:14 5,8 C 5,0 C 2,8 C 89 % 1011,0 hPa 0,0 l/m 0 min 0 min 22 W/m 29,0 km/h (5 Bft) 95,65 %
07.01.2022 14:16 5,8 C 5,0 C 2,8 C 89 % 1011,1 hPa 0,0 l/m 0 min 2 min 20 W/m 48,3 km/h (6 Bft) 95,74 %
07.01.2022 14:18 5,7 C 5,0 C 2,2 C 89 % 1011,1 hPa 0,0 l/m 0 min 2 min 33 W/m 35,4 km/h (5 Bft) 93,62 %
07.01.2022 14:20 5,7 C 5,0 C 2,2 C 89 % 1011,1 hPa 0,0 l/m 0 min 2 min 39 W/m 16,1 km/h (3 Bft) 95,74 %
07.01.2022 14:22 5,6 C 4,4 C 2,2 C 89 % 1011,1 hPa 0,0 l/m 0 min 2 min 41 W/m 32,2 km/h (5 Bft) 95,74 %
07.01.2022 14:24 5,5 C 4,4 C 1,7 C 90 % 1011,2 hPa 0,0 l/m 0 min 2 min 40 W/m 29,0 km/h (5 Bft) 97,87 %
07.01.2022 14:26 5,4 C 4,4 C 1,7 C 90 % 1011,2 hPa 0,0 l/m 0 min 0 min 27 W/m 19,3 km/h (3 Bft) 97,83 %
07.01.2022 14:28 5,3 C 4,4 C 1,7 C 90 % 1011,2 hPa 0,0 l/m 0 min 0 min 40 W/m 19,3 km/h (3 Bft) 95,74 %
07.01.2022 14:30 5,2 C 4,4 C 1,7 C 91 % 1011,2 hPa 0,0 l/m 0 min 0 min 45 W/m 35,4 km/h (5 Bft) 97,87 %
07.01.2022 14:32 5,1 C 4,4 C 1,7 C 91 % 1011,1 hPa 0,0 l/m 0 min 0 min 42 W/m 25,7 km/h (4 Bft) 95,74 %
07.01.2022 14:34 5,1 C 4,4 C 1,7 C 91 % 1011,1 hPa 0,0 l/m 0 min 0 min 59 W/m 16,1 km/h (3 Bft) 95,74 %
07.01.2022 14:36 4,9 C 4,4 C 1,7 C 91 % 1011,1 hPa 0,0 l/m 0 min 2 min 63 W/m 45,1 km/h (6 Bft) 97,87 %
07.01.2022 14:38 4,8 C 4,4 C 1,7 C 91 % 1011,0 hPa 0,0 l/m 0 min 2 min 54 W/m 19,3 km/h (3 Bft) 95,65 %
07.01.2022 14:40 4,7 C 3,9 C 1,7 C 91 % 1011,1 hPa 0,0 l/m 0 min 2 min 43 W/m 29,0 km/h (5 Bft) 95,74 %
07.01.2022 14:42 4,6 C 3,9 C 1,1 C 91 % 1011,1 hPa 0,0 l/m 0 min 2 min 25 W/m 29,0 km/h (5 Bft) 95,74 %
07.01.2022 14:44 4,6 C 3,9 C 1,1 C 91 % 1011,1 hPa 0,0 l/m 0 min 2 min 19 W/m 38,6 km/h (5 Bft) 95,74 %
07.01.2022 14:46 4,4 C 3,9 C 1,1 C 91 % 1011,2 hPa 0,0 l/m 0 min 2 min 21 W/m 35,4 km/h (5 Bft) 95,74 %
07.01.2022 14:48 4,4 C 3,9 C 1,1 C 90 % 1011,2 hPa 0,0 l/m 0 min 2 min 20 W/m 51,5 km/h (7 Bft) 95,74 %
07.01.2022 14:50 4,3 C 3,9 C 1,1 C 90 % 1011,2 hPa 0,0 l/m 0 min 2 min 15 W/m 32,2 km/h (5 Bft) 95,65 %
07.01.2022 14:52 4,3 C 3,3 C 1,1 C 91 % 1011,4 hPa 0,0 l/m 0 min 2 min 11 W/m 35,4 km/h (5 Bft) 93,62 %
07.01.2022 14:54 4,2 C 3,3 C 0,6 C 91 % 1011,1 hPa 0,0 l/m 0 min 2 min 9 W/m 32,2 km/h (5 Bft) 95,74 %
07.01.2022 14:56 4,1 C 3,3 C 0,6 C 91 % 1011,0 hPa 0,0 l/m 0 min 2 min 11 W/m 32,2 km/h (5 Bft) 91,49 %
07.01.2022 14:58 4,1 C 2,8 C 0,6 C 91 % 1011,0 hPa 0,0 l/m 0 min 2 min 12 W/m 19,3 km/h (3 Bft) 97,87 %
07.01.2022 15:00 4,0 C 2,8 C 0,6 C 91 % 1011,0 hPa 0,0 l/m 0 min 2 min 11 W/m 16,1 km/h (3 Bft) 97,87 %
07.01.2022 15:02 3,9 C 2,8 C 0,6 C 91 % 1011,0 hPa 0,0 l/m 0 min 2 min 11 W/m 22,5 km/h (4 Bft) 97,83 %
07.01.2022 15:04 3,9 C 2,8 C 0,6 C 91 % 1010,9 hPa 0,0 l/m 0 min 2 min 12 W/m 48,3 km/h (6 Bft) 97,87 %
07.01.2022 15:06 3,8 C 3,3 C 0,6 C 91 % 1010,8 hPa 0,0 l/m 0 min 2 min 15 W/m 32,2 km/h (5 Bft) 97,87 %
07.01.2022 15:08 3,8 C 3,3 C 0,6 C 91 % 1010,8 hPa 0,0 l/m 0 min 2 min 21 W/m 32,2 km/h (5 Bft) 97,87 %
07.01.2022 15:10 3,8 C 3,3 C 0,6 C 91 % 1010,8 hPa 0,0 l/m 0 min 2 min 30 W/m 16,1 km/h (3 Bft) 97,87 %
07.01.2022 15:12 3,9 C 3,3 C 0,6 C 91 % 1010,9 hPa 0,0 l/m 0 min 2 min 33 W/m 22,5 km/h (4 Bft) 97,83 %
07.01.2022 15:14 3,8 C 3,3 C 0,6 C 91 % 1010,9 hPa 0,0 l/m 0 min 2 min 31 W/m 22,5 km/h (4 Bft) 100,00 %
07.01.2022 15:16 3,8 C 3,3 C 0,6 C 91 % 1010,9 hPa 0,0 l/m 0 min 2 min 30 W/m 19,3 km/h (3 Bft) 100,00 %
07.01.2022 15:18 3,8 C 3,3 C 0,6 C 91 % 1010,9 hPa 0,0 l/m 0 min 2 min 34 W/m 25,7 km/h (4 Bft) 100,00 %
07.01.2022 15:20 3,8 C 3,3 C 0,6 C 91 % 1010,8 hPa 0,0 l/m 0 min 2 min 37 W/m 29,0 km/h (5 Bft) 100,00 %
07.01.2022 15:22 3,8 C 3,3 C 0,6 C 91 % 1010,9 hPa 0,0 l/m 0 min 0 min 37 W/m 22,5 km/h (4 Bft) 100,00 %
07.01.2022 15:24 3,8 C 3,3 C 0,6 C 91 % 1011,0 hPa 0,0 l/m 0 min 0 min 37 W/m 12,9 km/h (3 Bft) 100,00 %
07.01.2022 15:26 3,8 C 3,3 C 0,6 C 91 % 1011,0 hPa 0,0 l/m 0 min 2 min 38 W/m 16,1 km/h (3 Bft) 100,00 %
07.01.2022 15:28 3,7 C 3,3 C 0,6 C 91 % 1011,1 hPa 0,0 l/m 0 min 2 min 39 W/m 16,1 km/h (3 Bft) 100,00 %
07.01.2022 15:30 3,7 C 3,3 C 0,6 C 91 % 1011,0 hPa 0,0 l/m 0 min 0 min 40 W/m 19,3 km/h (3 Bft) 100,00 %
07.01.2022 15:32 3,7 C 3,3 C 0,6 C 91 % 1011,0 hPa 0,0 l/m 0 min 0 min 40 W/m 12,9 km/h (3 Bft) 100,00 %
07.01.2022 15:34 3,7 C 3,3 C 0,6 C 91 % 1010,9 hPa 0,0 l/m 0 min 0 min 39 W/m 12,9 km/h (3 Bft) 100,00 %
07.01.2022 15:36 3,7 C 3,3 C 0,6 C 91 % 1010,9 hPa 0,0 l/m 0 min 0 min 34 W/m 9,7 km/h (2 Bft) 97,83 %
07.01.2022 15:38 3,7 C 3,3 C 0,6 C 91 % 1010,8 hPa 0,0 l/m 0 min 0 min 32 W/m 12,9 km/h (3 Bft) 97,87 %
07.01.2022 15:40 3,7 C 3,3 C 0,6 C 92 % 1010,8 hPa 0,0 l/m 0 min 0 min 31 W/m 12,9 km/h (3 Bft) 100,00 %
07.01.2022 15:42 3,6 C 3,3 C 0,6 C 92 % 1010,8 hPa 0,0 l/m 0 min 0 min 31 W/m 16,1 km/h (3 Bft) 100,00 %
07.01.2022 15:44 3,6 C 3,3 C 0,6 C 92 % 1010,8 hPa 0,0 l/m 0 min 0 min 27 W/m 12,9 km/h (3 Bft) 100,00 %
07.01.2022 15:46 3,6 C 3,3 C 0,6 C 92 % 1010,8 hPa 0,0 l/m 0 min 0 min 25 W/m 12,9 km/h (3 Bft) 100,00 %
07.01.2022 15:48 3,6 C 3,3 C 0,6 C 92 % 1010,9 hPa 0,0 l/m 0 min 0 min 22 W/m 12,9 km/h (3 Bft) 100,00 %
07.01.2022 15:50 3,7 C 3,3 C 0,6 C 92 % 1010,9 hPa 0,0 l/m 0 min 0 min 17 W/m 16,1 km/h (3 Bft) 100,00 %
07.01.2022 15:52 3,6 C 3,3 C 0,6 C 92 % 1010,9 hPa 0,0 l/m 0 min 0 min 15 W/m 12,9 km/h (3 Bft) 97,87 %
07.01.2022 15:54 3,7 C 3,3 C 0,6 C 92 % 1010,9 hPa 0,0 l/m 0 min 0 min 17 W/m 16,1 km/h (3 Bft) 100,00 %
07.01.2022 15:56 3,7 C 3,3 C 0,6 C 92 % 1010,9 hPa 0,0 l/m 0 min 0 min 23 W/m 6,4 km/h (2 Bft) 100,00 %
07.01.2022 15:58 3,7 C 3,3 C 0,6 C 92 % 1010,8 hPa 0,0 l/m 0 min 0 min 25 W/m 6,4 km/h (2 Bft) 65,96 %
07.01.2022 16:00 3,7 C 3,3 C 0,6 C 93 % 1010,8 hPa 0,0 l/m 0 min 0 min 23 W/m 16,1 km/h (3 Bft) 89,19 %
07.01.2022 16:02 3,7 C 3,3 C 0,6 C 93 % 1010,8 hPa 0,0 l/m 0 min 0 min 17 W/m 16,1 km/h (3 Bft) 97,87 %
07.01.2022 16:04 3,8 C 3,3 C 0,6 C 93 % 1010,8 hPa 0,0 l/m 0 min 0 min 16 W/m 16,1 km/h (3 Bft) 100,00 %
07.01.2022 16:06 3,8 C 3,3 C 0,6 C 93 % 1010,8 hPa 0,0 l/m 0 min 0 min 14 W/m 19,3 km/h (3 Bft) 100,00 %
07.01.2022 16:08 3,8 C 3,3 C 0,6 C 93 % 1010,8 hPa 0,0 l/m 0 min 0 min 14 W/m 12,9 km/h (3 Bft) 100,00 %
07.01.2022 16:10 3,8 C 3,3 C 0,6 C 93 % 1010,8 hPa 0,0 l/m 0 min 0 min 16 W/m 9,7 km/h (2 Bft) 100,00 %
07.01.2022 16:12 3,8 C 3,3 C 0,6 C 93 % 1010,8 hPa 0,0 l/m 0 min 0 min 16 W/m 22,5 km/h (4 Bft) 97,83 %
07.01.2022 16:14 3,8 C 3,3 C 0,6 C 93 % 1010,8 hPa 0,0 l/m 0 min 0 min 16 W/m 19,3 km/h (3 Bft) 100,00 %
07.01.2022 16:16 3,8 C 3,3 C 0,6 C 93 % 1010,8 hPa 0,0 l/m 0 min 0 min 16 W/m 12,9 km/h (3 Bft) 100,00 %
07.01.2022 16:18 3,8 C 3,3 C 0,6 C 93 % 1010,9 hPa 0,0 l/m 0 min 0 min 17 W/m 12,9 km/h (3 Bft) 95,74 %
07.01.2022 16:20 3,8 C 3,3 C 0,6 C 93 % 1010,9 hPa 0,0 l/m 0 min 0 min 18 W/m 16,1 km/h (3 Bft) 95,74 %
07.01.2022 16:22 3,8 C 3,3 C 0,6 C 93 % 1010,9 hPa 0,0 l/m 0 min 0 min 17 W/m 12,9 km/h (3 Bft) 97,87 %
07.01.2022 16:24 3,7 C 3,3 C 0,6 C 93 % 1010,9 hPa 0,0 l/m 0 min 0 min 16 W/m 12,9 km/h (3 Bft) 95,65 %
07.01.2022 16:26 3,7 C 3,3 C 0,6 C 93 % 1010,9 hPa 0,0 l/m 0 min 0 min 15 W/m 12,9 km/h (3 Bft) 95,74 %
07.01.2022 16:28 3,7 C 2,8 C 0,6 C 93 % 1010,9 hPa 0,0 l/m 0 min 0 min 12 W/m 6,4 km/h (2 Bft) 97,87 %
07.01.2022 16:30 3,7 C 2,8 C 0,6 C 94 % 1010,8 hPa 0,0 l/m 0 min 0 min 11 W/m 16,1 km/h (3 Bft) 97,87 %
07.01.2022 16:32 3,7 C 2,8 C 0,6 C 94 % 1010,8 hPa 0,0 l/m 0 min 0 min 9 W/m 16,1 km/h (3 Bft) 97,87 %
07.01.2022 16:34 3,7 C 2,8 C 0,6 C 93 % 1010,8 hPa 0,0 l/m 0 min 0 min 9 W/m 16,1 km/h (3 Bft) 95,74 %
07.01.2022 16:36 3,7 C 2,8 C 0,6 C 94 % 1010,9 hPa 0,0 l/m 0 min 0 min 7 W/m 16,1 km/h (3 Bft) 95,65 %
07.01.2022 16:38 3,7 C 2,8 C 0,6 C 94 % 1010,9 hPa 0,0 l/m 0 min 0 min 5 W/m 16,1 km/h (3 Bft) 95,74 %
07.01.2022 16:40 3,7 C 2,8 C 0,6 C 94 % 1010,9 hPa 0,0 l/m 0 min 0 min 3 W/m 16,1 km/h (3 Bft) 95,74 %
07.01.2022 16:42 3,7 C 2,8 C 0,6 C 94 % 1011,0 hPa 0,0 l/m 0 min 0 min 0 W/m 12,9 km/h (3 Bft) 95,74 %
07.01.2022 16:44 3,7 C 2,8 C 0,6 C 94 % 1011,0 hPa 0,0 l/m 0 min 0 min 0 W/m 6,4 km/h (2 Bft) 95,74 %
07.01.2022 16:46 3,7 C 3,3 C 0,6 C 94 % 1011,0 hPa 0,0 l/m 0 min 0 min 0 W/m 16,1 km/h (3 Bft) 93,62 %
07.01.2022 16:48 3,7 C 3,3 C 0,6 C 94 % 1011,0 hPa 0,0 l/m 0 min 0 min 0 W/m 6,4 km/h (2 Bft) 95,65 %
07.01.2022 16:50 3,7 C 3,3 C 0,6 C 94 % 1010,9 hPa 0,0 l/m 0 min 0 min 0 W/m 12,9 km/h (3 Bft) 97,87 %
07.01.2022 16:52 3,7 C 3,3 C 0,6 C 94 % 1010,9 hPa 0,0 l/m 0 min 0 min 0 W/m 9,7 km/h (2 Bft) 89,36 %
07.01.2022 16:54 3,7 C 3,3 C 0,6 C 94 % 1010,9 hPa 0,0 l/m 0 min 0 min 0 W/m 9,7 km/h (2 Bft) 95,74 %
07.01.2022 16:56 3,7 C 3,3 C 0,6 C 94 % 1010,9 hPa 0,0 l/m 0 min 0 min 0 W/m 6,4 km/h (2 Bft) 97,37 %
07.01.2022 16:58 3,7 C 3,3 C 0,6 C 94 % 1011,0 hPa 0,0 l/m 0 min 0 min 0 W/m 12,9 km/h (3 Bft) 94,00 %
07.01.2022 17:00 3,7 C 3,3 C 0,6 C 94 % 1011,0 hPa 0,0 l/m 0 min 0 min 0 W/m 9,7 km/h (2 Bft) 97,87 %
07.01.2022 17:02 3,8 C 3,3 C 0,6 C 94 % 1011,1 hPa 0,0 l/m 0 min 0 min 0 W/m 19,3 km/h (3 Bft) 97,83 %
07.01.2022 17:04 3,8 C 3,3 C 0,6 C 94 % 1011,0 hPa 0,0 l/m 0 min 0 min 0 W/m 12,9 km/h (3 Bft) 100,00 %
07.01.2022 17:06 3,8 C 3,3 C 1,1 C 94 % 1011,1 hPa 0,0 l/m 0 min 0 min 0 W/m 22,5 km/h (4 Bft) 97,87 %
07.01.2022 17:08 3,8 C 3,3 C 1,1 C 94 % 1011,0 hPa 0,0 l/m 0 min 0 min 0 W/m 9,7 km/h (2 Bft) 100,00 %
07.01.2022 17:10 3,8 C 3,3 C 1,1 C 94 % 1011,0 hPa 0,0 l/m 0 min 0 min 0 W/m 16,1 km/h (3 Bft) 100,00 %
07.01.2022 17:12 3,9 C 3,3 C 1,1 C 94 % 1011,0 hPa 0,0 l/m 0 min 0 min 0 W/m 16,1 km/h (3 Bft) 100,00 %
07.01.2022 17:14 3,9 C 3,3 C 1,1 C 94 % 1011,1 hPa 0,0 l/m 0 min 0 min 0 W/m 12,9 km/h (3 Bft) 93,62 %
07.01.2022 17:16 3,9 C 3,3 C 1,1 C 94 % 1011,1 hPa 0,0 l/m 0 min 0 min 0 W/m 12,9 km/h (3 Bft) 97,87 %
07.01.2022 17:18 3,9 C 3,3 C 1,1 C 94 % 1011,0 hPa 0,0 l/m 0 min 0 min 0 W/m 16,1 km/h (3 Bft) 97,87 %
07.01.2022 17:20 3,9 C 3,3 C 1,1 C 94 % 1011,0 hPa 0,0 l/m 0 min 0 min 0 W/m 12,9 km/h (3 Bft) 97,87 %
07.01.2022 17:22 3,9 C 3,3 C 1,1 C 94 % 1010,9 hPa 0,0 l/m 0 min 0 min 0 W/m 12,9 km/h (3 Bft) 97,87 %
07.01.2022 17:24 3,9 C 3,3 C 1,1 C 94 % 1011,0 hPa 0,0 l/m 0 min 0 min 0 W/m 9,7 km/h (2 Bft) 97,83 %
07.01.2022 17:26 3,9 C 3,3 C 1,1 C 94 % 1011,0 hPa 0,0 l/m 0 min 0 min 0 W/m 16,1 km/h (3 Bft) 95,74 %
07.01.2022 17:28 3,9 C 3,3 C 0,6 C 94 % 1011,0 hPa 0,0 l/m 0 min 0 min 0 W/m 22,5 km/h (4 Bft) 97,87 %
07.01.2022 17:30 3,9 C 3,3 C 1,1 C 94 % 1011,1 hPa 0,0 l/m 0 min 0 min 0 W/m 22,5 km/h (4 Bft) 95,74 %
07.01.2022 17:32 3,9 C 3,3 C 1,1 C 93 % 1011,0 hPa 0,0 l/m 0 min 0 min 0 W/m 22,5 km/h (4 Bft) 95,74 %
07.01.2022 17:34 3,9 C 3,3 C 1,1 C 93 % 1011,1 hPa 0,0 l/m 0 min 0 min 0 W/m 19,3 km/h (3 Bft) 97,87 %
07.01.2022 17:36 3,9 C 3,3 C 1,1 C 93 % 1011,1 hPa 0,0 l/m 0 min 0 min 0 W/m 16,1 km/h (3 Bft) 97,83 %
07.01.2022 17:38 4,0 C 3,3 C 1,1 C 93 % 1011,0 hPa 0,0 l/m 0 min 0 min 0 W/m 16,1 km/h (3 Bft) 95,74 %
07.01.2022 17:40 4,0 C 3,3 C 1,1 C 93 % 1011,1 hPa 0,0 l/m 0 min 0 min 0 W/m 12,9 km/h (3 Bft) 97,87 %
07.01.2022 17:42 4,0 C 3,3 C 1,1 C 93 % 1011,1 hPa 0,0 l/m 0 min 0 min 0 W/m 22,5 km/h (4 Bft) 97,87 %
07.01.2022 17:44 4,0 C 3,3 C 1,1 C 93 % 1011,2 hPa 0,0 l/m 0 min 0 min 0 W/m 22,5 km/h (4 Bft) 97,87 %
07.01.2022 17:46 4,0 C 3,3 C 1,1 C 93 % 1011,1 hPa 0,0 l/m 0 min 0 min 0 W/m 12,9 km/h (3 Bft) 95,74 %
07.01.2022 17:48 4,0 C 3,3 C 1,1 C 93 % 1011,1 hPa 0,0 l/m 0 min 0 min 0 W/m 16,1 km/h (3 Bft) 95,65 %
07.01.2022 17:50 4,0 C 3,3 C 1,1 C 93 % 1011,1 hPa 0,0 l/m 0 min 0 min 0 W/m 12,9 km/h (3 Bft) 97,87 %
07.01.2022 17:52 4,0 C 3,3 C 1,1 C 92 % 1011,0 hPa 0,0 l/m 0 min 0 min 0 W/m 9,7 km/h (2 Bft) 97,87 %
07.01.2022 17:54 4,0 C 3,3 C 1,1 C 92 % 1011,1 hPa 0,0 l/m 0 min 0 min 0 W/m 6,4 km/h (2 Bft) 97,87 %
07.01.2022 17:56 4,0 C 3,3 C 1,1 C 92 % 1011,0 hPa 0,0 l/m 0 min 0 min 0 W/m 9,7 km/h (2 Bft) 97,87 %
07.01.2022 17:58 3,9 C 3,3 C 1,1 C 92 % 1010,9 hPa 0,0 l/m 0 min 0 min 0 W/m 22,5 km/h (4 Bft) 97,87 %
07.01.2022 18:00 3,9 C 3,3 C 1,1 C 92 % 1010,9 hPa 0,0 l/m 0 min 0 min 0 W/m 19,3 km/h (3 Bft) 97,83 %
07.01.2022 18:02 3,9 C 3,3 C 1,1 C 92 % 1010,9 hPa 0,0 l/m 0 min 0 min 0 W/m 16,1 km/h (3 Bft) 95,74 %
07.01.2022 18:04 3,9 C 3,3 C 1,1 C 92 % 1010,8 hPa 0,0 l/m 0 min 0 min 0 W/m 12,9 km/h (3 Bft) 97,87 %
07.01.2022 18:06 3,9 C 3,3 C 1,1 C 92 % 1010,8 hPa 0,0 l/m 0 min 0 min 0 W/m 12,9 km/h (3 Bft) 95,74 %
07.01.2022 18:08 3,9 C 3,3 C 1,1 C 92 % 1010,9 hPa 0,0 l/m 0 min 0 min 0 W/m 12,9 km/h (3 Bft) 100,00 %
07.01.2022 18:10 3,8 C 3,3 C 1,1 C 92 % 1010,9 hPa 0,0 l/m 0 min 0 min 0 W/m 16,1 km/h (3 Bft) 100,00 %
07.01.2022 18:12 3,8 C 3,3 C 1,1 C 92 % 1010,8 hPa 0,0 l/m 0 min 0 min 0 W/m 19,3 km/h (3 Bft) 100,00 %
07.01.2022 18:14 3,8 C 3,3 C 1,1 C 92 % 1010,7 hPa 0,0 l/m 0 min 0 min 0 W/m 22,5 km/h (4 Bft) 100,00 %
07.01.2022 18:16 3,8 C 3,3 C 1,1 C 92 % 1010,7 hPa 0,0 l/m 0 min 0 min 0 W/m 22,5 km/h (4 Bft) 95,74 %
07.01.2022 18:18 3,8 C 3,3 C 1,1 C 92 % 1010,7 hPa 0,0 l/m 0 min 0 min 0 W/m 9,7 km/h (2 Bft) 97,87 %
07.01.2022 18:20 3,8 C 2,8 C 0,6 C 92 % 1010,7 hPa 0,0 l/m 0 min 0 min 0 W/m 16,1 km/h (3 Bft) 100,00 %
07.01.2022 18:22 3,7 C 2,8 C 0,6 C 92 % 1010,7 hPa 0,0 l/m 0 min 0 min 0 W/m 6,4 km/h (2 Bft) 97,87 %
07.01.2022 18:24 3,7 C 2,8 C 0,6 C 92 % 1010,7 hPa 0,0 l/m 0 min 0 min 0 W/m 6,4 km/h (2 Bft) 97,83 %
07.01.2022 18:26 3,7 C 2,8 C 0,6 C 92 % 1010,8 hPa 0,0 l/m 0 min 0 min 0 W/m 12,9 km/h (3 Bft) 97,87 %
07.01.2022 18:28 3,7 C 2,8 C 0,6 C 92 % 1010,8 hPa 0,0 l/m 0 min 0 min 0 W/m 6,4 km/h (2 Bft) 95,74 %
07.01.2022 18:30 3,7 C 2,8 C 0,6 C 92 % 1010,8 hPa 0,0 l/m 0 min 0 min 0 W/m 9,7 km/h (2 Bft) 95,74 %
07.01.2022 18:32 3,6 C 2,8 C 0,6 C 92 % 1010,8 hPa 0,0 l/m 0 min 0 min 0 W/m 12,9 km/h (3 Bft) 97,87 %
07.01.2022 18:34 3,6 C 2,8 C 0,6 C 92 % 1010,8 hPa 0,0 l/m 0 min 0 min 0 W/m 12,9 km/h (3 Bft) 95,74 %
07.01.2022 18:36 3,6 C 2,8 C 0,6 C 92 % 1010,7 hPa 0,0 l/m 0 min 0 min 0 W/m 6,4 km/h (2 Bft) 95,65 %
07.01.2022 18:38 3,6 C 2,8 C 0,6 C 92 % 1010,6 hPa 0,0 l/m 0 min 0 min 0 W/m 19,3 km/h (3 Bft) 97,87 %
07.01.2022 18:40 3,6 C 2,8 C 0,6 C 92 % 1010,8 hPa 0,0 l/m 0 min 0 min 0 W/m 12,9 km/h (3 Bft) 95,74 %
07.01.2022 18:42 3,5 C 2,8 C 0,6 C 92 % 1010,8 hPa 0,0 l/m 0 min 0 min 0 W/m 12,9 km/h (3 Bft) 95,74 %
07.01.2022 18:44 3,4 C 2,8 C 0,6 C 92 % 1010,7 hPa 0,0 l/m 0 min 0 min 0 W/m 6,4 km/h (2 Bft) 95,74 %
07.01.2022 18:46 3,4 C 2,8 C 0,6 C 92 % 1010,7 hPa 0,0 l/m 0 min 0 min 0 W/m 19,3 km/h (3 Bft) 95,65 %
07.01.2022 18:48 3,4 C 2,8 C 0,6 C 92 % 1010,7 hPa 0,0 l/m 0 min 0 min 0 W/m 22,5 km/h (4 Bft) 95,74 %
07.01.2022 18:50 3,4 C 2,8 C 0,6 C 92 % 1010,8 hPa 0,0 l/m 0 min 0 min 0 W/m 16,1 km/h (3 Bft) 97,87 %
07.01.2022 18:52 3,3 C 2,8 C 0,6 C 92 % 1010,8 hPa 0,0 l/m 0 min 0 min 0 W/m 19,3 km/h (3 Bft) 97,87 %
07.01.2022 18:54 3,3 C 2,8 C 0,6 C 92 % 1010,8 hPa 0,0 l/m 0 min 0 min 0 W/m 19,3 km/h (3 Bft) 95,74 %
07.01.2022 18:56 3,3 C 2,8 C 0,6 C 92 % 1010,8 hPa 0,0 l/m 0 min 0 min 0 W/m 12,9 km/h (3 Bft) 95,74 %
07.01.2022 18:58 3,3 C 2,2 C 0,6 C 92 % 1010,8 hPa 0,0 l/m 0 min 0 min 0 W/m 19,3 km/h (3 Bft) 97,87 %
07.01.2022 19:00 3,2 C 2,8 C 0,6 C 92 % 1010,9 hPa 0,0 l/m 0 min 0 min 0 W/m 16,1 km/h (3 Bft) 97,83 %
07.01.2022 19:02 3,2 C 2,8 C 0,6 C 92 % 1010,9 hPa 0,0 l/m 0 min 0 min 0 W/m 22,5 km/h (4 Bft) 100,00 %
07.01.2022 19:04 3,2 C 2,8 C 0,6 C 92 % 1010,8 hPa 0,0 l/m 0 min 0 min 0 W/m 19,3 km/h (3 Bft) 100,00 %
07.01.2022 19:06 3,2 C 2,2 C 0,6 C 92 % 1010,8 hPa 0,0 l/m 0 min 0 min 0 W/m 16,1 km/h (3 Bft) 97,87 %
07.01.2022 19:08 3,1 C 2,2 C 0,6 C 92 % 1010,8 hPa 0,0 l/m 0 min 0 min 0 W/m 12,9 km/h (3 Bft) 97,87 %
07.01.2022 19:10 3,1 C 2,2 C 0,6 C 92 % 1010,8 hPa 0,0 l/m 0 min 0 min 0 W/m 19,3 km/h (3 Bft) 95,74 %
07.01.2022 19:12 3,1 C 2,2 C 0,6 C 92 % 1010,9 hPa 0,0 l/m 0 min 0 min 0 W/m 12,9 km/h (3 Bft) 97,83 %
07.01.2022 19:14 3,1 C 2,2 C 0,0 C 92 % 1010,8 hPa 0,0 l/m 0 min 0 min 0 W/m 12,9 km/h (3 Bft) 97,87 %
07.01.2022 19:16 3,0 C 2,2 C 0,0 C 92 % 1010,8 hPa 0,0 l/m 0 min 0 min 0 W/m 19,3 km/h (3 Bft) 98,11 %
07.01.2022 19:18 3,0 C 2,2 C 0,0 C 92 % 1010,7 hPa 0,0 l/m 0 min 0 min 0 W/m 22,5 km/h (4 Bft) 97,87 %
07.01.2022 19:20 2,9 C 2,2 C 0,0 C 92 % 1010,7 hPa 0,0 l/m 0 min 0 min 0 W/m 19,3 km/h (3 Bft) 97,83 %
07.01.2022 19:22 2,9 C 2,2 C 0,0 C 92 % 1010,7 hPa 0,0 l/m 0 min 0 min 0 W/m 22,5 km/h (4 Bft) 100,00 %
07.01.2022 19:24 2,9 C 2,2 C 0,0 C 92 % 1010,7 hPa 0,0 l/m 0 min 0 min 0 W/m 12,9 km/h (3 Bft) 100,00 %
07.01.2022 19:26 2,9 C 2,2 C 0,0 C 92 % 1010,7 hPa 0,0 l/m 0 min 0 min 0 W/m 19,3 km/h (3 Bft) 100,00 %
07.01.2022 19:28 2,9 C 2,2 C 0,0 C 92 % 1010,7 hPa 0,0 l/m 0 min 0 min 0 W/m 25,7 km/h (4 Bft) 100,00 %
07.01.2022 19:30 2,9 C 2,2 C 0,0 C 92 % 1010,6 hPa 0,0 l/m 0 min 0 min 0 W/m 19,3 km/h (3 Bft) 100,00 %
07.01.2022 19:32 2,9 C 2,2 C 0,0 C 92 % 1010,6 hPa 0,0 l/m 0 min 0 min 0 W/m 25,7 km/h (4 Bft) 100,00 %
07.01.2022 19:34 2,8 C 2,2 C 0,0 C 92 % 1010,6 hPa 0,0 l/m 0 min 0 min 0 W/m 25,7 km/h (4 Bft) 100,00 %
07.01.2022 19:36 2,8 C 2,2 C 0,0 C 93 % 1010,7 hPa 0,0 l/m 0 min 0 min 0 W/m 12,9 km/h (3 Bft) 97,87 %
07.01.2022 19:38 2,8 C 2,2 C 0,0 C 93 % 1010,7 hPa 0,0 l/m 0 min 0 min 0 W/m 16,1 km/h (3 Bft) 100,00 %
07.01.2022 19:40 2,8 C 2,2 C 0,0 C 93 % 1010,8 hPa 0,0 l/m 0 min 0 min 0 W/m 16,1 km/h (3 Bft) 100,00 %
07.01.2022 19:42 2,8 C 2,2 C 0,0 C 93 % 1010,8 hPa 0,0 l/m 0 min 0 min 0 W/m 22,5 km/h (4 Bft) 100,00 %
07.01.2022 19:44 2,8 C 2,2 C 0,0 C 93 % 1010,7 hPa 0,0 l/m 0 min 0 min 0 W/m 16,1 km/h (3 Bft) 100,00 %
07.01.2022 19:46 2,7 C 2,2 C 0,0 C 93 % 1010,8 hPa 0,0 l/m 0 min 0 min 0 W/m 16,1 km/h (3 Bft) 60,78 %
07.01.2022 19:48 2,7 C 2,2 C 0,0 C 93 % 1010,8 hPa 0,0 l/m 0 min 0 min 0 W/m 22,5 km/h (4 Bft) 100,00 %
07.01.2022 19:50 2,7 C 2,2 C 0,0 C 93 % 1010,8 hPa 0,0 l/m 0 min 0 min 0 W/m 16,1 km/h (3 Bft) 100,00 %
07.01.2022 19:52 2,7 C 2,2 C 0,0 C 93 % 1010,8 hPa 0,0 l/m 0 min 0 min 0 W/m 16,1 km/h (3 Bft) 100,00 %
07.01.2022 19:54 2,7 C 2,2 C 0,0 C 93 % 1010,9 hPa 0,0 l/m 0 min 0 min 0 W/m 16,1 km/h (3 Bft) 100,00 %
07.01.2022 19:56 2,7 C 2,2 C 0,0 C 93 % 1010,9 hPa 0,0 l/m 0 min 0 min 0 W/m 9,7 km/h (2 Bft) 100,00 %
07.01.2022 19:58 2,7 C 1,7 C 0,0 C 93 % 1010,8 hPa 0,0 l/m 0 min 0 min 0 W/m 9,7 km/h (2 Bft) 95,65 %
07.01.2022 20:00 2,7 C 1,7 C 0,0 C 93 % 1010,8 hPa 0,0 l/m 0 min 0 min 0 W/m 16,1 km/h (3 Bft) 100,00 %
07.01.2022 20:02 2,7 C 1,7 C 0,0 C 93 % 1010,9 hPa 0,0 l/m 0 min 0 min 0 W/m 12,9 km/h (3 Bft) 96,23 %
07.01.2022 20:04 2,6 C 1,7 C 0,0 C 93 % 1010,8 hPa 0,0 l/m 0 min 0 min 0 W/m 12,9 km/h (3 Bft) 100,00 %
07.01.2022 20:06 2,6 C 1,7 C 0,0 C 93 % 1010,8 hPa 0,0 l/m 0 min 0 min 0 W/m 16,1 km/h (3 Bft) 100,00 %
07.01.2022 20:08 2,6 C 1,7 C 0,0 C 93 % 1010,8 hPa 0,0 l/m 0 min 0 min 0 W/m 25,7 km/h (4 Bft) 100,00 %
07.01.2022 20:10 2,6 C 1,7 C 0,0 C 93 % 1010,8 hPa 0,0 l/m 0 min 0 min 0 W/m 12,9 km/h (3 Bft) 97,87 %
07.01.2022 20:12 2,6 C 1,7 C 0,0 C 93 % 1010,8 hPa 0,0 l/m 0 min 0 min 0 W/m 16,1 km/h (3 Bft) 100,00 %
07.01.2022 20:14 2,6 C 1,7 C 0,0 C 93 % 1010,8 hPa 0,0 l/m 0 min 0 min 0 W/m 16,1 km/h (3 Bft) 100,00 %
07.01.2022 20:16 2,6 C 1,7 C 0,0 C 93 % 1010,8 hPa 0,0 l/m 0 min 0 min 0 W/m 16,1 km/h (3 Bft) 100,00 %
07.01.2022 20:18 2,6 C 1,7 C 0,0 C 93 % 1010,8 hPa 0,0 l/m 0 min 0 min 0 W/m 29,0 km/h (5 Bft) 97,87 %
07.01.2022 20:20 2,6 C 1,7 C 0,0 C 93 % 1010,8 hPa 0,0 l/m 0 min 0 min 0 W/m 19,3 km/h (3 Bft) 97,83 %
07.01.2022 20:22 2,6 C 1,7 C 0,0 C 93 % 1010,8 hPa 0,0 l/m 0 min 0 min 0 W/m 16,1 km/h (3 Bft) 97,87 %
07.01.2022 20:24 2,6 C 1,7 C 0,0 C 93 % 1010,8 hPa 0,0 l/m 0 min 0 min 0 W/m 12,9 km/h (3 Bft) 97,87 %
07.01.2022 20:26 2,6 C 1,7 C 0,0 C 93 % 1010,7 hPa 0,0 l/m 0 min 0 min 0 W/m 16,1 km/h (3 Bft) 91,49 %
07.01.2022 20:28 2,6 C 1,7 C 0,0 C 93 % 1010,7 hPa 0,0 l/m 0 min 0 min 0 W/m 16,1 km/h (3 Bft) 95,74 %
07.01.2022 20:30 2,5 C 1,7 C 0,0 C 93 % 1010,8 hPa 0,0 l/m 0 min 0 min 0 W/m 12,9 km/h (3 Bft) 95,74 %
07.01.2022 20:32 2,5 C 1,7 C 0,0 C 93 % 1010,8 hPa 0,0 l/m 0 min 0 min 0 W/m 9,7 km/h (2 Bft) 93,48 %
07.01.2022 20:34 2,5 C 1,7 C 0,0 C 93 % 1010,8 hPa 0,0 l/m 0 min 0 min 0 W/m 9,7 km/h (2 Bft) 93,62 %
07.01.2022 20:36 2,4 C 1,7 C 0,0 C 93 % 1010,8 hPa 0,0 l/m 0 min 0 min 0 W/m 12,9 km/h (3 Bft) 91,49 %
07.01.2022 20:38 2,4 C 1,7 C 0,0 C 93 % 1010,8 hPa 0,0 l/m 0 min 0 min 0 W/m 12,9 km/h (3 Bft) 93,62 %
07.01.2022 20:40 2,4 C 1,7 C 0,0 C 94 % 1010,8 hPa 0,0 l/m 0 min 0 min 0 W/m 25,7 km/h (4 Bft) 93,62 %
07.01.2022 20:42 2,4 C 1,7 C 0,0 C 94 % 1010,8 hPa 0,0 l/m 0 min 0 min 0 W/m 16,1 km/h (3 Bft) 91,49 %
07.01.2022 20:44 2,4 C 1,7 C 0,0 C 94 % 1010,8 hPa 0,0 l/m 0 min 0 min 0 W/m 19,3 km/h (3 Bft) 95,65 %
07.01.2022 20:46 2,4 C 1,7 C 0,0 C 94 % 1010,9 hPa 0,0 l/m 0 min 0 min 0 W/m 19,3 km/h (3 Bft) 95,74 %
07.01.2022 20:48 2,4 C 1,7 C 0,0 C 94 % 1010,9 hPa 0,0 l/m 0 min 0 min 0 W/m 19,3 km/h (3 Bft) 95,74 %
07.01.2022 20:50 2,4 C 1,7 C 0,0 C 94 % 1010,9 hPa 0,0 l/m 0 min 0 min 0 W/m 16,1 km/h (3 Bft) 97,87 %
07.01.2022 20:52 2,4 C 1,7 C 0,0 C 94 % 1010,8 hPa 0,0 l/m 0 min 0 min 0 W/m 16,1 km/h (3 Bft) 93,62 %
07.01.2022 20:54 2,4 C 1,7 C 0,0 C 94 % 1010,8 hPa 0,0 l/m 0 min 0 min 0 W/m 16,1 km/h (3 Bft) 97,83 %
07.01.2022 20:56 2,4 C 1,7 C 0,0 C 94 % 1010,8 hPa 0,0 l/m 0 min 0 min 0 W/m 12,9 km/h (3 Bft) 89,36 %
07.01.2022 20:58 2,4 C 1,7 C 0,0 C 94 % 1010,8 hPa 0,0 l/m 0 min 0 min 0 W/m 16,1 km/h (3 Bft) 93,62 %
07.01.2022 21:00 2,4 C 1,7 C 0,0 C 94 % 1010,8 hPa 0,0 l/m 0 min 0 min 0 W/m 16,1 km/h (3 Bft) 97,87 %
07.01.2022 21:02 2,4 C 1,7 C 0,0 C 94 % 1010,7 hPa 0,0 l/m 0 min 0 min 0 W/m 16,1 km/h (3 Bft) 95,74 %
07.01.2022 21:04 2,4 C 1,7 C 0,0 C 94 % 1010,7 hPa 0,0 l/m 0 min 0 min 0 W/m 12,9 km/h (3 Bft) 95,74 %
07.01.2022 21:06 2,4 C 1,7 C 0,0 C 94 % 1010,8 hPa 0,0 l/m 0 min 0 min 0 W/m 16,1 km/h (3 Bft) 95,65 %
07.01.2022 21:08 2,4 C 2,2 C 0,0 C 94 % 1010,8 hPa 0,0 l/m 0 min 0 min 0 W/m 22,5 km/h (4 Bft) 95,74 %
07.01.2022 21:10 2,4 C 2,2 C 0,0 C 94 % 1010,8 hPa 0,0 l/m 0 min 0 min 0 W/m 16,1 km/h (3 Bft) 95,74 %
07.01.2022 21:12 2,5 C 2,2 C 0,0 C 94 % 1010,8 hPa 0,0 l/m 0 min 0 min 0 W/m 9,7 km/h (2 Bft) 95,74 %
07.01.2022 21:14 2,5 C 2,2 C 0,0 C 94 % 1010,8 hPa 0,0 l/m 0 min 0 min 0 W/m 16,1 km/h (3 Bft) 93,62 %
07.01.2022 21:16 2,5 C 2,2 C 0,0 C 94 % 1010,8 hPa 0,0 l/m 0 min 0 min 0 W/m 12,9 km/h (3 Bft) 95,74 %
07.01.2022 21:18 2,6 C 2,2 C 0,0 C 94 % 1010,8 hPa 0,0 l/m 0 min 0 min 0 W/m 12,9 km/h (3 Bft) 97,83 %
07.01.2022 21:20 2,6 C 2,2 C 0,0 C 94 % 1010,8 hPa 0,0 l/m 0 min 0 min 0 W/m 16,1 km/h (3 Bft) 97,87 %
07.01.2022 21:22 2,6 C 2,2 C 0,0 C 94 % 1010,7 hPa 0,0 l/m 0 min 0 min 0 W/m 16,1 km/h (3 Bft) 95,74 %
07.01.2022 21:24 2,6 C 2,2 C 0,0 C 94 % 1010,7 hPa 0,0 l/m 0 min 0 min 0 W/m 16,1 km/h (3 Bft) 95,74 %
07.01.2022 21:26 2,6 C 2,2 C 0,0 C 94 % 1010,8 hPa 0,0 l/m 0 min 0 min 0 W/m 19,3 km/h (3 Bft) 97,87 %
07.01.2022 21:28 2,6 C 2,2 C 0,0 C 94 % 1010,8 hPa 0,0 l/m 0 min 0 min 0 W/m 19,3 km/h (3 Bft) 97,87 %
07.01.2022 21:30 2,6 C 2,2 C 0,0 C 94 % 1010,7 hPa 0,0 l/m 0 min 0 min 0 W/m 16,1 km/h (3 Bft) 97,83 %
07.01.2022 21:32 2,6 C 2,2 C 0,0 C 94 % 1010,7 hPa 0,0 l/m 0 min 0 min 0 W/m 16,1 km/h (3 Bft) 95,74 %
07.01.2022 21:34 2,7 C 2,2 C 0,0 C 94 % 1010,7 hPa 0,0 l/m 0 min 0 min 0 W/m 19,3 km/h (3 Bft) 97,87 %
07.01.2022 21:36 2,7 C 2,2 C 0,0 C 94 % 1010,7 hPa 0,0 l/m 0 min 0 min 0 W/m 16,1 km/h (3 Bft) 95,74 %
07.01.2022 21:38 2,7 C 2,2 C 0,0 C 94 % 1010,6 hPa 0,0 l/m 0 min 0 min 0 W/m 16,1 km/h (3 Bft) 97,87 %
07.01.2022 21:40 2,7 C 2,2 C 0,0 C 94 % 1010,6 hPa 0,0 l/m 0 min 0 min 0 W/m 12,9 km/h (3 Bft) 95,74 %
07.01.2022 21:42 2,7 C 2,2 C 0,0 C 94 % 1010,6 hPa 0,0 l/m 0 min 0 min 0 W/m 19,3 km/h (3 Bft) 97,83 %
07.01.2022 21:44 2,7 C 2,2 C 0,0 C 94 % 1010,6 hPa 0,0 l/m 0 min 0 min 0 W/m 19,3 km/h (3 Bft) 95,74 %
07.01.2022 21:46 2,7 C 2,2 C 0,0 C 94 % 1010,6 hPa 0,0 l/m 0 min 0 min 0 W/m 12,9 km/h (3 Bft) 100,00 %
07.01.2022 21:48 2,7 C 2,2 C 0,0 C 94 % 1010,6 hPa 0,0 l/m 0 min 0 min 0 W/m 12,9 km/h (3 Bft) 100,00 %
07.01.2022 21:50 2,7 C 2,2 C 0,0 C 94 % 1010,6 hPa 0,0 l/m 0 min 0 min 0 W/m 12,9 km/h (3 Bft) 100,00 %
07.01.2022 21:52 2,7 C 2,2 C 0,0 C 94 % 1010,5 hPa 0,0 l/m 0 min 0 min 0 W/m 12,9 km/h (3 Bft) 100,00 %
07.01.2022 21:54 2,7 C 2,2 C 0,0 C 94 % 1010,5 hPa 0,0 l/m 0 min 0 min 0 W/m 12,9 km/h (3 Bft) 100,00 %
07.01.2022 21:56 2,7 C 2,2 C 0,0 C 94 % 1010,5 hPa 0,0 l/m 0 min 0 min 0 W/m 16,1 km/h (3 Bft) 100,00 %
07.01.2022 21:58 2,7 C 2,2 C 0,0 C 94 % 1010,5 hPa 0,0 l/m 0 min 0 min 0 W/m 9,7 km/h (2 Bft) 97,87 %
07.01.2022 22:00 2,7 C 2,2 C 0,0 C 94 % 1010,5 hPa 0,0 l/m 0 min 0 min 0 W/m 12,9 km/h (3 Bft) 100,00 %
07.01.2022 22:02 2,7 C 2,2 C 0,0 C 94 % 1010,5 hPa 0,0 l/m 0 min 0 min 0 W/m 16,1 km/h (3 Bft) 98,15 %
07.01.2022 22:04 2,7 C 2,2 C 0,0 C 94 % 1010,4 hPa 0,0 l/m 0 min 0 min 0 W/m 12,9 km/h (3 Bft) 100,00 %
07.01.2022 22:06 2,7 C 2,2 C 0,0 C 94 % 1010,5 hPa 0,0 l/m 0 min 0 min 0 W/m 9,7 km/h (2 Bft) 97,83 %
07.01.2022 22:08 2,7 C 2,2 C 0,0 C 94 % 1010,4 hPa 0,0 l/m 0 min 0 min 0 W/m 6,4 km/h (2 Bft) 97,87 %
07.01.2022 22:10 2,7 C 2,2 C 0,0 C 94 % 1010,4 hPa 0,0 l/m 0 min 0 min 0 W/m 12,9 km/h (3 Bft) 95,74 %
07.01.2022 22:12 2,7 C 2,2 C 0,0 C 94 % 1010,4 hPa 0,0 l/m 0 min 0 min 0 W/m 12,9 km/h (3 Bft) 97,87 %
07.01.2022 22:14 2,7 C 2,2 C 0,0 C 94 % 1010,5 hPa 0,0 l/m 0 min 0 min 0 W/m 12,9 km/h (3 Bft) 97,87 %
07.01.2022 22:16 2,7 C 2,2 C 0,0 C 94 % 1010,5 hPa 0,0 l/m 0 min 0 min 0 W/m 12,9 km/h (3 Bft) 97,83 %
07.01.2022 22:18 2,7 C 2,2 C 0,0 C 94 % 1010,4 hPa 0,0 l/m 0 min 0 min 0 W/m 9,7 km/h (2 Bft) 95,74 %
07.01.2022 22:20 2,7 C 2,2 C 0,0 C 94 % 1010,4 hPa 0,0 l/m 0 min 0 min 0 W/m 9,7 km/h (2 Bft) 97,87 %
07.01.2022 22:22 2,7 C 2,2 C 0,0 C 94 % 1010,4 hPa 0,0 l/m 0 min 0 min 0 W/m 12,9 km/h (3 Bft) 95,74 %
07.01.2022 22:24 2,7 C 2,2 C 0,0 C 94 % 1010,4 hPa 0,0 l/m 0 min 0 min 0 W/m 9,7 km/h (2 Bft) 97,87 %
07.01.2022 22:26 2,7 C 2,2 C 0,0 C 94 % 1010,4 hPa 0,0 l/m 0 min 0 min 0 W/m 9,7 km/h (2 Bft) 93,62 %
07.01.2022 22:28 2,7 C 2,2 C 0,0 C 93 % 1010,4 hPa 0,0 l/m 0 min 0 min 0 W/m 9,7 km/h (2 Bft) 97,83 %
07.01.2022 22:30 2,7 C 2,2 C 0,0 C 93 % 1010,4 hPa 0,0 l/m 0 min 0 min 0 W/m 6,4 km/h (2 Bft) 93,62 %
07.01.2022 22:32 2,7 C 2,2 C 0,0 C 93 % 1010,4 hPa 0,0 l/m 0 min 0 min 0 W/m 6,4 km/h (2 Bft) 97,87 %
07.01.2022 22:34 2,7 C 2,2 C 0,0 C 93 % 1010,4 hPa 0,0 l/m 0 min 0 min 0 W/m 9,7 km/h (2 Bft) 97,87 %
07.01.2022 22:36 2,7 C 2,2 C 0,0 C 93 % 1010,3 hPa 0,0 l/m 0 min 0 min 0 W/m 6,4 km/h (2 Bft) 97,87 %
07.01.2022 22:38 2,7 C 2,2 C 0,0 C 93 % 1010,3 hPa 0,0 l/m 0 min 0 min 0 W/m 9,7 km/h (2 Bft) 95,74 %
07.01.2022 22:40 2,6 C 2,2 C 0,0 C 93 % 1010,3 hPa 0,0 l/m 0 min 0 min 0 W/m 6,4 km/h (2 Bft) 97,83 %
07.01.2022 22:42 2,6 C 2,2 C 0,0 C 93 % 1010,3 hPa 0,0 l/m 0 min 0 min 0 W/m 6,4 km/h (2 Bft) 100,00 %
07.01.2022 22:44 2,6 C 2,2 C 0,0 C 93 % 1010,3 hPa 0,0 l/m 0 min 0 min 0 W/m 9,7 km/h (2 Bft) 100,00 %
07.01.2022 22:46 2,6 C 2,2 C 0,0 C 93 % 1010,4 hPa 0,0 l/m 0 min 0 min 0 W/m 12,9 km/h (3 Bft) 100,00 %
07.01.2022 22:48 2,6 C 2,2 C 0,0 C 94 % 1010,4 hPa 0,0 l/m 0 min 0 min 0 W/m 12,9 km/h (3 Bft) 97,87 %
07.01.2022 22:50 2,6 C 1,7 C 0,0 C 94 % 1010,4 hPa 0,0 l/m 0 min 0 min 0 W/m 9,7 km/h (2 Bft) 97,87 %
07.01.2022 22:52 2,6 C 1,7 C 0,0 C 94 % 1010,4 hPa 0,0 l/m 0 min 0 min 0 W/m 6,4 km/h (2 Bft) 97,87 %
07.01.2022 22:54 2,6 C 1,7 C 0,0 C 94 % 1010,4 hPa 0,0 l/m 0 min 0 min 0 W/m 3,2 km/h (1 Bft) 100,00 %
07.01.2022 22:56 2,6 C 1,7 C 0,0 C 94 % 1010,4 hPa 0,0 l/m 0 min 0 min 0 W/m 12,9 km/h (3 Bft) 95,74 %
07.01.2022 22:58 2,6 C 1,7 C 0,0 C 94 % 1010,3 hPa 0,0 l/m 0 min 0 min 0 W/m 3,2 km/h (1 Bft) 95,74 %
07.01.2022 23:00 2,6 C 1,7 C 0,0 C 94 % 1010,4 hPa 0,0 l/m 0 min 0 min 0 W/m 3,2 km/h (1 Bft) 97,87 %
07.01.2022 23:02 2,6 C 1,7 C 0,0 C 94 % 1010,4 hPa 0,0 l/m 0 min 0 min 0 W/m 3,2 km/h (1 Bft) 97,92 %
07.01.2022 23:04 2,6 C 1,7 C 0,0 C 94 % 1010,4 hPa 0,0 l/m 0 min 0 min 0 W/m 6,4 km/h (2 Bft) 100,00 %
07.01.2022 23:06 2,6 C 1,7 C 0,0 C 94 % 1010,4 hPa 0,0 l/m 0 min 0 min 0 W/m 3,2 km/h (1 Bft) 97,87 %
07.01.2022 23:08 2,6 C 1,7 C 0,0 C 94 % 1010,4 hPa 0,0 l/m 0 min 0 min 0 W/m 3,2 km/h (1 Bft) 97,87 %
07.01.2022 23:10 2,6 C 1,7 C 0,0 C 94 % 1010,4 hPa 0,0 l/m 0 min 0 min 0 W/m 3,2 km/h (1 Bft) 100,00 %
07.01.2022 23:12 2,6 C 1,7 C 0,0 C 94 % 1010,5 hPa 0,0 l/m 0 min 0 min 0 W/m 3,2 km/h (1 Bft) 53,49 %
07.01.2022 23:14 2,6 C 1,7 C 0,0 C 94 % 1010,4 hPa 0,0 l/m 0 min 0 min 0 W/m 3,2 km/h (1 Bft) 96,88 %
07.01.2022 23:16 2,6 C 1,7 C 0,0 C 94 % 1010,4 hPa 0,0 l/m 0 min 0 min 0 W/m 3,2 km/h (1 Bft) 100,00 %
07.01.2022 23:18 2,6 C 1,7 C 0,0 C 94 % 1010,4 hPa 0,0 l/m 0 min 0 min 0 W/m 3,2 km/h (1 Bft) 100,00 %
07.01.2022 23:20 2,6 C 1,7 C 0,0 C 94 % 1010,4 hPa 0,0 l/m 0 min 0 min 0 W/m 3,2 km/h (1 Bft) 97,87 %
07.01.2022 23:22 2,6 C 1,7 C 0,0 C 94 % 1010,4 hPa 0,0 l/m 0 min 0 min 0 W/m 3,2 km/h (1 Bft) 97,87 %
07.01.2022 23:24 2,6 C 1,7 C 0,0 C 94 % 1010,3 hPa 0,0 l/m 0 min 0 min 0 W/m 3,2 km/h (1 Bft) 95,74 %
07.01.2022 23:26 2,6 C 1,7 C 0,0 C 94 % 1010,4 hPa 0,0 l/m 0 min 0 min 0 W/m 3,2 km/h (1 Bft) 100,00 %
07.01.2022 23:28 2,6 C 1,7 C 0,0 C 94 % 1010,4 hPa 0,0 l/m 0 min 0 min 0 W/m 3,2 km/h (1 Bft) 97,83 %
07.01.2022 23:30 2,5 C 1,7 C 0,0 C 94 % 1010,3 hPa 0,0 l/m 0 min 0 min 0 W/m 3,2 km/h (1 Bft) 97,87 %
07.01.2022 23:32 2,5 C 1,7 C 0,0 C 94 % 1010,3 hPa 0,0 l/m 0 min 0 min 0 W/m 3,2 km/h (1 Bft) 93,75 %
07.01.2022 23:34 2,5 C 1,7 C 0,0 C 94 % 1010,3 hPa 0,0 l/m 0 min 0 min 0 W/m 3,2 km/h (1 Bft) 93,62 %
07.01.2022 23:36 2,5 C 1,7 C 0,0 C 94 % 1010,4 hPa 0,0 l/m 0 min 0 min 0 W/m 3,2 km/h (1 Bft) 93,62 %
07.01.2022 23:38 2,5 C 1,7 C 0,0 C 94 % 1010,4 hPa 0,0 l/m 0 min 0 min 0 W/m 3,2 km/h (1 Bft) 97,14 %
07.01.2022 23:40 2,4 C 1,7 C 0,0 C 94 % 1010,4 hPa 0,0 l/m 0 min 0 min 0 W/m 0,0 km/h (0 Bft) 94,83 %
07.01.2022 23:42 2,4 C 1,7 C 0,0 C 94 % 1010,4 hPa 0,0 l/m 0 min 0 min 0 W/m 0,0 km/h (0 Bft) 95,74 %
07.01.2022 23:44 2,4 C 1,1 C 0,0 C 94 % 1010,3 hPa 0,0 l/m 0 min 0 min 0 W/m 0,0 km/h (0 Bft) 95,74 %
07.01.2022 23:46 2,4 C 1,1 C -0,6 C 94 % 1010,3 hPa 0,0 l/m 0 min 0 min 0 W/m 0,0 km/h (0 Bft) 95,74 %
07.01.2022 23:48 2,4 C 1,1 C -0,6 C 94 % 1010,4 hPa 0,0 l/m 0 min 0 min 0 W/m 0,0 km/h (0 Bft) 93,62 %
07.01.2022 23:50 2,4 C 1,1 C -0,6 C 94 % 1010,3 hPa 0,0 l/m 0 min 0 min 0 W/m 0,0 km/h (0 Bft) 93,48 %
07.01.2022 23:52 2,4 C 1,1 C -0,6 C 94 % 1010,4 hPa 0,0 l/m 0 min 0 min 0 W/m 0,0 km/h (0 Bft) 95,74 %
07.01.2022 23:54 2,3 C 1,1 C -0,6 C 94 % 1010,4 hPa 0,0 l/m 0 min 0 min 0 W/m 0,0 km/h (0 Bft) 95,74 %
07.01.2022 23:56 2,3 C 1,1 C 0,0 C 94 % 1010,4 hPa 0,0 l/m 0 min 0 min 0 W/m 3,2 km/h (1 Bft) 93,62 %
07.01.2022 23:58 2,3 C 1,1 C 0,0 C 94 % 1010,3 hPa 0,0 l/m 0 min 0 min 0 W/m 3,2 km/h (1 Bft) 95,74 %
_ Min-Zeit 00:00 23:44 06:26 05:28 22:36 - - - - 23:40 02:10
Minimum _ 2,1 C 1,1 C -0,6 C 85 % 1010,3 hPa - - - - 0,0 km/h (0 Bft) 51,16 %
_ Max-Zeit 14:04 13:58 13:18 07:08 00:00 03:38 13:58 03:04 13:58 14:48 00:04
Maximum _ 5,9 C 7,8 C 2,8 C 94 % 1017,7 hPa 0,2 l/m 2 min 2 min 253 W/m 51,5 km/h
SW (7 Bft)
100,00 %
Durchschnitt _ 3,4 C 2,8 C 0,6 C 91 % 1012,4 hPa #1,4 l/m #6 min. #3:36 h 45 W/m 19,1 km/h (3 Bft) 96,99 %
© 2022 W. Hausmann